AFR95 KMCO-LFPG
Flight info
| Callsign | AFR95 |
|---|---|
| Flight time | 8h 25m |
| Altitude | 37000 |
| Route | FATHE4 VIYAP Q87 JROSS Q135 RAPZZ Q135 RREGG EARZZ Q131 KALDA Q167 TOPRR VALCO KYSKY Q430 FLAPE KURLY KANNI N97B SUPRY 4650N 4840N 4830N 4820N 4815N UMLER UN734 UMOXA ADSET UT512 ANG UN741 KEPER |
| Aircraft | B789/H-SDE1E2E3FGHIJ2J3J4J5M1RWXY/LB1D1 |
Departure
| Time | 2026-04-25 14:30 |
|---|---|
| Airport | Orlando International Airport (KMCO) |
Arrival
| Time | 2026-04-25 22:55 |
|---|---|
| Airport | Charles de Gaulle International Airport (LFPG) |
| Time | Latitude | Longitude | Altitude | Speed | Heading |
|---|---|---|---|---|---|
| 2026-04-25 14:04 | 28.43293 | -81.31696 | 111 ft | 0 kts | 247° |
| 2026-04-25 14:05 | 28.43293 | -81.31697 | 107 ft | 0 kts | 247° |
| 2026-04-25 14:05 | 28.43293 | -81.31698 | 107 ft | 0 kts | 247° |
| 2026-04-25 14:07 | 28.43313 | -81.31708 | 107 ft | 0 kts | 219° |
| 2026-04-25 14:14 | 28.43275 | -81.31749 | 107 ft | 10 kts | 230° |
| 2026-04-25 14:14 | 28.43255 | -81.31802 | 107 ft | 9 kts | 270° |
| 2026-04-25 14:14 | 28.43275 | -81.31834 | 106 ft | 2 kts | 342° |
| 2026-04-25 14:14 | 28.43332 | -81.31836 | 106 ft | 15 kts | 358° |
| 2026-04-25 14:15 | 28.43477 | -81.31841 | 109 ft | 25 kts | 359° |
| 2026-04-25 14:15 | 28.43599 | -81.31844 | 110 ft | 26 kts | 359° |
| 2026-04-25 14:15 | 28.43817 | -81.31845 | 111 ft | 22 kts | 359° |
| 2026-04-25 14:15 | 28.43919 | -81.31800 | 109 ft | 12 kts | 74° |
| 2026-04-25 14:16 | 28.43918 | -81.31699 | 109 ft | 17 kts | 88° |
| 2026-04-25 14:16 | 28.43924 | -81.31533 | 108 ft | 25 kts | 90° |
| 2026-04-25 14:16 | 28.43930 | -81.31314 | 107 ft | 29 kts | 87° |
| 2026-04-25 14:16 | 28.43938 | -81.31110 | 120 ft | 24 kts | 87° |
| 2026-04-25 14:17 | 28.43943 | -81.30891 | 111 ft | 31 kts | 90° |
| 2026-04-25 14:17 | 28.43931 | -81.30707 | 127 ft | 23 kts | 94° |
| 2026-04-25 14:17 | 28.43922 | -81.30511 | 104 ft | 24 kts | 93° |
| 2026-04-25 14:17 | 28.43915 | -81.30393 | 106 ft | 0 kts | 93° |
| 2026-04-25 14:19 | 28.43915 | -81.30388 | 106 ft | 2 kts | 94° |
| 2026-04-25 14:19 | 28.43913 | -81.30355 | 107 ft | 6 kts | 94° |
| 2026-04-25 14:20 | 28.43910 | -81.30293 | 109 ft | 10 kts | 94° |
| 2026-04-25 14:20 | 28.43905 | -81.30223 | 109 ft | 17 kts | 93° |
| 2026-04-25 14:20 | 28.43892 | -81.30001 | 108 ft | 22 kts | 102° |
| 2026-04-25 14:20 | 28.43813 | -81.29862 | 108 ft | 20 kts | 140° |
| 2026-04-25 14:21 | 28.43727 | -81.29818 | 108 ft | 6 kts | 168° |
| 2026-04-25 14:21 | 28.43689 | -81.29812 | 109 ft | 6 kts | 175° |
| 2026-04-25 14:21 | 28.43636 | -81.29810 | 109 ft | 8 kts | 180° |
| 2026-04-25 14:21 | 28.43616 | -81.29809 | 109 ft | 0 kts | 180° |
| 2026-04-25 14:23 | 28.43614 | -81.29809 | 109 ft | 3 kts | 179° |
| 2026-04-25 14:23 | 28.43597 | -81.29808 | 109 ft | 3 kts | 173° |
| 2026-04-25 14:24 | 28.43573 | -81.29793 | 108 ft | 5 kts | 141° |
| 2026-04-25 14:24 | 28.43557 | -81.29766 | 109 ft | 5 kts | 110° |
| 2026-04-25 14:24 | 28.43551 | -81.29718 | 108 ft | 4 kts | 92° |
| 2026-04-25 14:24 | 28.43551 | -81.29714 | 108 ft | 0 kts | 91° |
| 2026-04-25 14:25 | 28.43551 | -81.29689 | 108 ft | 8 kts | 91° |
| 2026-04-25 14:25 | 28.43549 | -81.29642 | 109 ft | 10 kts | 96° |
| 2026-04-25 14:26 | 28.43500 | -81.29593 | 110 ft | 7 kts | 168° |
| 2026-04-25 14:26 | 28.43453 | -81.29589 | 111 ft | 0 kts | 178° |
| 2026-04-25 14:29 | 28.43345 | -81.29587 | 111 ft | 38 kts | 179° |
| 2026-04-25 14:29 | 28.42886 | -81.29581 | 109 ft | 95 kts | 179° |
| 2026-04-25 14:29 | 28.42023 | -81.29573 | 108 ft | 147 kts | 180° |
| 2026-04-25 14:30 | 28.40866 | -81.29560 | 171 ft | 183 kts | 183° |
| 2026-04-25 14:30 | 28.38365 | -81.29159 | 1631 ft | 189 kts | 148° |
| 2026-04-25 14:30 | 28.37338 | -81.28123 | 2187 ft | 209 kts | 133° |
| 2026-04-25 14:31 | 28.36297 | -81.26807 | 2645 ft | 235 kts | 132° |
| 2026-04-25 14:31 | 28.35150 | -81.25383 | 3148 ft | 257 kts | 134° |
| 2026-04-25 14:31 | 28.33862 | -81.23885 | 3861 ft | 264 kts | 135° |
| 2026-04-25 14:31 | 28.32733 | -81.22249 | 4624 ft | 275 kts | 110° |
| 2026-04-25 14:32 | 28.32491 | -81.20113 | 5733 ft | 270 kts | 89° |
| 2026-04-25 14:32 | 28.32611 | -81.17975 | 6627 ft | 276 kts | 84° |
| 2026-04-25 14:32 | 28.32846 | -81.15782 | 7478 ft | 282 kts | 76° |
| 2026-04-25 14:32 | 28.33837 | -81.13902 | 8346 ft | 281 kts | 37° |
| 2026-04-25 14:33 | 28.35566 | -81.12941 | 9178 ft | 283 kts | 11° |
| 2026-04-25 14:33 | 28.37514 | -81.12904 | 10096 ft | 280 kts | 346° |
| 2026-04-25 14:33 | 28.39363 | -81.13544 | 10920 ft | 283 kts | 339° |
| 2026-04-25 14:33 | 28.41240 | -81.14312 | 11825 ft | 285 kts | 340° |
| 2026-04-25 14:34 | 28.43147 | -81.14984 | 12701 ft | 290 kts | 342° |
| 2026-04-25 14:34 | 28.45159 | -81.15631 | 12883 ft | 317 kts | 343° |
| 2026-04-25 14:34 | 28.47353 | -81.16356 | 13010 ft | 344 kts | 342° |
| 2026-04-25 14:34 | 28.49745 | -81.17175 | 13106 ft | 370 kts | 342° |
| 2026-04-25 14:35 | 28.52242 | -81.18027 | 13877 ft | 374 kts | 342° |
| 2026-04-25 14:35 | 28.54743 | -81.18871 | 14576 ft | 379 kts | 342° |
| 2026-04-25 14:35 | 28.57269 | -81.19724 | 15272 ft | 383 kts | 342° |
| 2026-04-25 14:35 | 28.59849 | -81.20600 | 15884 ft | 390 kts | 342° |
| 2026-04-25 14:36 | 28.62515 | -81.21507 | 15994 ft | 398 kts | 342° |
| 2026-04-25 14:36 | 28.65127 | -81.22392 | 15987 ft | 392 kts | 342° |
| 2026-04-25 14:36 | 28.67756 | -81.23283 | 15989 ft | 391 kts | 342° |
| 2026-04-25 14:36 | 28.70373 | -81.24174 | 15988 ft | 391 kts | 342° |
| 2026-04-25 14:37 | 28.72952 | -81.25051 | 15991 ft | 390 kts | 342° |
| 2026-04-25 14:37 | 28.75557 | -81.25937 | 15991 ft | 390 kts | 342° |
| 2026-04-25 14:37 | 28.78174 | -81.26827 | 15989 ft | 390 kts | 342° |
| 2026-04-25 14:37 | 28.80740 | -81.27702 | 15992 ft | 390 kts | 342° |
| 2026-04-25 14:38 | 28.83354 | -81.28584 | 15986 ft | 389 kts | 344° |
| 2026-04-25 14:38 | 28.86050 | -81.28993 | 15990 ft | 392 kts | 355° |
| 2026-04-25 14:38 | 28.88743 | -81.29225 | 15992 ft | 393 kts | 353° |
| 2026-04-25 14:38 | 28.91466 | -81.29474 | 15988 ft | 392 kts | 354° |
| 2026-04-25 14:39 | 28.94213 | -81.29708 | 16007 ft | 393 kts | 354° |
| 2026-04-25 14:39 | 28.96904 | -81.29930 | 16008 ft | 393 kts | 354° |
| 2026-04-25 14:39 | 28.99646 | -81.30145 | 16006 ft | 392 kts | 356° |
| 2026-04-25 14:39 | 29.02377 | -81.30265 | 16007 ft | 393 kts | 355° |
| 2026-04-25 14:40 | 29.05076 | -81.30464 | 16008 ft | 392 kts | 354° |
| 2026-04-25 14:40 | 29.07813 | -81.30646 | 16004 ft | 393 kts | 355° |
| 2026-04-25 14:40 | 29.10553 | -81.30789 | 16010 ft | 392 kts | 355° |
| 2026-04-25 14:40 | 29.13251 | -81.30934 | 16007 ft | 392 kts | 355° |
| 2026-04-25 14:41 | 29.15989 | -81.31100 | 16005 ft | 392 kts | 355° |
| 2026-04-25 14:41 | 29.18722 | -81.31265 | 16008 ft | 392 kts | 355° |
| 2026-04-25 14:41 | 29.21459 | -81.31423 | 16005 ft | 392 kts | 355° |
| 2026-04-25 14:41 | 29.24150 | -81.31577 | 15999 ft | 392 kts | 355° |
| 2026-04-25 14:42 | 29.26892 | -81.31738 | 15984 ft | 392 kts | 355° |
| 2026-04-25 14:42 | 29.27813 | -81.31792 | 15983 ft | 392 kts | 355° |
| 2026-04-25 14:42 | 29.32352 | -81.32059 | 15988 ft | 392 kts | 355° |
| 2026-04-25 14:42 | 29.35052 | -81.32216 | 15990 ft | 392 kts | 355° |
| 2026-04-25 14:43 | 29.37796 | -81.32376 | 15986 ft | 391 kts | 355° |
| 2026-04-25 14:43 | 29.40484 | -81.32534 | 15981 ft | 392 kts | 355° |
| 2026-04-25 14:43 | 29.43222 | -81.32695 | 15981 ft | 391 kts | 355° |
| 2026-04-25 14:43 | 29.45940 | -81.32854 | 16161 ft | 394 kts | 355° |
| 2026-04-25 14:44 | 29.48665 | -81.33013 | 16956 ft | 395 kts | 355° |
| 2026-04-25 14:44 | 29.51440 | -81.33177 | 17563 ft | 401 kts | 355° |
| 2026-04-25 14:44 | 29.54196 | -81.33340 | 18215 ft | 405 kts | 355° |
| 2026-04-25 14:44 | 29.57002 | -81.33504 | 18763 ft | 410 kts | 355° |
| 2026-04-25 14:45 | 29.59886 | -81.33673 | 19377 ft | 412 kts | 355° |
| 2026-04-25 14:45 | 29.62744 | -81.33841 | 19953 ft | 416 kts | 355° |
| 2026-04-25 14:45 | 29.65635 | -81.34011 | 20503 ft | 419 kts | 355° |
| 2026-04-25 14:45 | 29.68569 | -81.34184 | 21043 ft | 422 kts | 355° |
| 2026-04-25 14:46 | 29.71507 | -81.34357 | 21577 ft | 425 kts | 355° |
| 2026-04-25 14:46 | 29.74497 | -81.34533 | 22105 ft | 428 kts | 355° |
| 2026-04-25 14:46 | 29.77499 | -81.34710 | 22608 ft | 432 kts | 355° |
| 2026-04-25 14:46 | 29.80483 | -81.34889 | 23107 ft | 435 kts | 355° |
| 2026-04-25 14:47 | 29.83539 | -81.35067 | 23580 ft | 438 kts | 356° |
| 2026-04-25 14:47 | 29.84536 | -81.35124 | 23704 ft | 439 kts | 356° |
| 2026-04-25 14:47 | 29.89664 | -81.35429 | 24402 ft | 443 kts | 356° |
| 2026-04-25 14:47 | 29.92723 | -81.35613 | 24796 ft | 445 kts | 356° |
| 2026-04-25 14:48 | 29.95831 | -81.35795 | 25179 ft | 448 kts | 356° |
| 2026-04-25 14:48 | 29.98972 | -81.35979 | 25564 ft | 450 kts | 356° |
| 2026-04-25 14:48 | 30.02078 | -81.36164 | 25925 ft | 452 kts | 356° |
| 2026-04-25 14:48 | 30.05257 | -81.36354 | 26297 ft | 454 kts | 356° |
| 2026-04-25 14:49 | 30.08392 | -81.36539 | 26653 ft | 456 kts | 356° |
| 2026-04-25 14:49 | 30.11586 | -81.36728 | 26965 ft | 458 kts | 356° |
| 2026-04-25 14:49 | 30.14758 | -81.36917 | 27169 ft | 460 kts | 356° |
| 2026-04-25 14:49 | 30.17979 | -81.37109 | 27426 ft | 461 kts | 356° |
| 2026-04-25 14:50 | 30.21200 | -81.37301 | 27638 ft | 463 kts | 356° |
| 2026-04-25 14:50 | 30.24400 | -81.37491 | 27875 ft | 464 kts | 357° |
| 2026-04-25 14:50 | 30.27618 | -81.37683 | 28102 ft | 465 kts | 357° |
| 2026-04-25 14:50 | 30.30880 | -81.37877 | 28314 ft | 467 kts | 357° |
| 2026-04-25 14:51 | 30.34102 | -81.38070 | 28554 ft | 468 kts | 357° |
| 2026-04-25 14:51 | 30.37383 | -81.38266 | 28782 ft | 469 kts | 357° |
| 2026-04-25 14:51 | 30.40656 | -81.38461 | 29005 ft | 471 kts | 357° |
| 2026-04-25 14:51 | 30.43908 | -81.38655 | 29228 ft | 472 kts | 357° |
| 2026-04-25 14:52 | 30.47209 | -81.38853 | 29441 ft | 473 kts | 357° |
| 2026-04-25 14:52 | 30.50518 | -81.39051 | 29667 ft | 475 kts | 357° |
| 2026-04-25 14:52 | 30.53784 | -81.39247 | 29903 ft | 476 kts | 357° |
| 2026-04-25 14:52 | 30.54903 | -81.39314 | 29975 ft | 477 kts | 357° |
| 2026-04-25 14:53 | 30.60451 | -81.39647 | 30275 ft | 479 kts | 357° |
| 2026-04-25 14:53 | 30.63753 | -81.39845 | 30463 ft | 480 kts | 357° |
| 2026-04-25 14:53 | 30.67110 | -81.40047 | 30642 ft | 481 kts | 357° |
| 2026-04-25 14:53 | 30.69341 | -81.40181 | 30767 ft | 482 kts | 357° |
| 2026-04-25 14:54 | 30.72671 | -81.40381 | 30924 ft | 483 kts | 357° |
| 2026-04-25 14:54 | 30.77158 | -81.40651 | 31161 ft | 485 kts | 357° |
| 2026-04-25 14:54 | 30.80539 | -81.40855 | 31380 ft | 485 kts | 357° |
| 2026-04-25 14:54 | 30.82791 | -81.40991 | 31559 ft | 485 kts | 356° |
| 2026-04-25 14:55 | 30.86163 | -81.41194 | 31821 ft | 484 kts | 356° |
| 2026-04-25 14:55 | 30.89542 | -81.41398 | 32081 ft | 483 kts | 356° |
| 2026-04-25 14:55 | 30.92866 | -81.41599 | 32350 ft | 483 kts | 356° |
| 2026-04-25 14:55 | 30.96236 | -81.41802 | 32626 ft | 482 kts | 356° |
| 2026-04-25 14:56 | 30.99559 | -81.42003 | 32902 ft | 481 kts | 356° |
| 2026-04-25 14:56 | 31.02906 | -81.42206 | 33185 ft | 481 kts | 356° |
| 2026-04-25 14:56 | 31.06271 | -81.42410 | 33457 ft | 480 kts | 356° |
| 2026-04-25 14:56 | 31.09594 | -81.42611 | 33721 ft | 480 kts | 356° |
| 2026-04-25 14:57 | 31.12942 | -81.42814 | 33990 ft | 480 kts | 356° |
| 2026-04-25 14:57 | 31.16263 | -81.43016 | 34233 ft | 479 kts | 356° |
| 2026-04-25 14:57 | 31.19605 | -81.43219 | 34463 ft | 478 kts | 356° |
| 2026-04-25 14:57 | 31.22894 | -81.43259 | 34707 ft | 478 kts | 5° |
| 2026-04-25 14:58 | 31.26197 | -81.42626 | 34923 ft | 479 kts | 14° |
| 2026-04-25 14:58 | 31.29319 | -81.41336 | 35134 ft | 481 kts | 24° |
| 2026-04-25 14:58 | 31.32385 | -81.39691 | 35303 ft | 481 kts | 22° |
| 2026-04-25 14:58 | 31.35410 | -81.38059 | 35537 ft | 480 kts | 23° |
| 2026-04-25 14:59 | 31.38420 | -81.36418 | 35763 ft | 479 kts | 23° |
| 2026-04-25 14:59 | 31.41449 | -81.34769 | 35974 ft | 479 kts | 23° |
| 2026-04-25 14:59 | 31.44501 | -81.33116 | 36208 ft | 478 kts | 23° |
| 2026-04-25 14:59 | 31.47515 | -81.31483 | 36412 ft | 477 kts | 23° |
| 2026-04-25 15:00 | 31.50501 | -81.29857 | 36623 ft | 476 kts | 23° |
| 2026-04-25 15:00 | 31.53489 | -81.28229 | 36806 ft | 476 kts | 23° |
| 2026-04-25 15:00 | 31.56508 | -81.26586 | 36960 ft | 477 kts | 23° |
| 2026-04-25 15:00 | 31.59514 | -81.24950 | 36943 ft | 479 kts | 23° |
| 2026-04-25 15:01 | 31.65545 | -81.21658 | 36926 ft | 475 kts | 23° |
| 2026-04-25 15:01 | 31.71534 | -81.18388 | 36925 ft | 474 kts | 23° |
| 2026-04-25 15:02 | 31.77540 | -81.15102 | 36917 ft | 474 kts | 23° |
| 2026-04-25 15:02 | 31.83508 | -81.11833 | 36911 ft | 473 kts | 23° |
| 2026-04-25 15:03 | 31.89443 | -81.08577 | 36913 ft | 474 kts | 23° |
| 2026-04-25 15:03 | 31.95458 | -81.05272 | 36921 ft | 476 kts | 23° |
| 2026-04-25 15:04 | 32.01460 | -81.01968 | 36923 ft | 476 kts | 23° |
| 2026-04-25 15:04 | 32.07431 | -80.98616 | 36924 ft | 476 kts | 24° |
| 2026-04-25 15:05 | 32.13419 | -80.95270 | 36922 ft | 476 kts | 23° |
| 2026-04-25 15:06 | 32.22355 | -80.90256 | 36958 ft | 476 kts | 24° |
| 2026-04-25 15:06 | 32.28370 | -80.86880 | 36965 ft | 476 kts | 24° |
| 2026-04-25 15:07 | 32.34333 | -80.83524 | 36960 ft | 477 kts | 24° |
| 2026-04-25 15:07 | 32.40324 | -80.80149 | 36953 ft | 478 kts | 24° |
| 2026-04-25 15:08 | 32.46333 | -80.76758 | 36951 ft | 479 kts | 24° |
| 2026-04-25 15:08 | 32.52340 | -80.73364 | 36953 ft | 479 kts | 24° |
| 2026-04-25 15:09 | 32.58351 | -80.69962 | 36952 ft | 479 kts | 24° |
| 2026-04-25 15:09 | 32.67403 | -80.64830 | 36949 ft | 480 kts | 24° |
| 2026-04-25 15:10 | 32.72854 | -80.60306 | 36981 ft | 485 kts | 45° |
| 2026-04-25 15:11 | 32.79573 | -80.51287 | 36959 ft | 486 kts | 47° |
| 2026-04-25 15:11 | 32.84027 | -80.45250 | 36956 ft | 487 kts | 47° |
| 2026-04-25 15:12 | 32.90727 | -80.36152 | 36937 ft | 487 kts | 47° |
| 2026-04-25 15:12 | 32.93711 | -80.32093 | 36920 ft | 487 kts | 47° |
| 2026-04-25 15:13 | 33.01883 | -80.20954 | 36927 ft | 488 kts | 47° |
| 2026-04-25 15:14 | 33.06349 | -80.14855 | 36926 ft | 488 kts | 47° |
| 2026-04-25 15:14 | 33.10794 | -80.08770 | 36948 ft | 488 kts | 47° |
| 2026-04-25 15:15 | 33.15259 | -80.02649 | 36954 ft | 489 kts | 47° |
| 2026-04-25 15:15 | 33.19726 | -79.96515 | 36946 ft | 489 kts | 47° |
| 2026-04-25 15:16 | 33.24162 | -79.90413 | 36945 ft | 489 kts | 47° |
| 2026-04-25 15:16 | 33.30873 | -79.81160 | 36947 ft | 490 kts | 47° |
| 2026-04-25 15:17 | 33.37566 | -79.71911 | 36935 ft | 490 kts | 47° |
| 2026-04-25 15:18 | 33.42017 | -79.65746 | 37344 ft | 485 kts | 47° |
| 2026-04-25 15:18 | 33.46388 | -79.59683 | 37758 ft | 484 kts | 47° |
| 2026-04-25 15:18 | 33.48589 | -79.56627 | 37931 ft | 484 kts | 47° |
| 2026-04-25 15:19 | 33.50782 | -79.53576 | 38113 ft | 483 kts | 47° |
| 2026-04-25 15:19 | 33.51525 | -79.52542 | 38173 ft | 483 kts | 47° |
| 2026-04-25 15:19 | 33.55169 | -79.47469 | 38451 ft | 483 kts | 47° |
| 2026-04-25 15:19 | 33.57364 | -79.44411 | 38574 ft | 484 kts | 47° |
| 2026-04-25 15:20 | 33.61785 | -79.38240 | 38578 ft | 490 kts | 47° |
| 2026-04-25 15:20 | 33.66238 | -79.32014 | 38818 ft | 489 kts | 47° |
| 2026-04-25 15:21 | 33.68453 | -79.28914 | 38934 ft | 490 kts | 47° |
| 2026-04-25 15:21 | 33.70679 | -79.25801 | 38936 ft | 492 kts | 47° |
| 2026-04-25 15:21 | 33.75148 | -79.19543 | 38945 ft | 494 kts | 47° |
| 2026-04-25 15:22 | 33.79565 | -79.13342 | 38943 ft | 492 kts | 47° |
| 2026-04-25 15:22 | 33.84036 | -79.07062 | 38946 ft | 496 kts | 47° |
| 2026-04-25 15:23 | 33.88517 | -79.00749 | 38952 ft | 497 kts | 47° |
| 2026-04-25 15:23 | 33.93007 | -78.94418 | 38948 ft | 497 kts | 47° |
| 2026-04-25 15:24 | 33.97492 | -78.88078 | 38943 ft | 497 kts | 47° |
| 2026-04-25 15:24 | 34.00463 | -78.83874 | 38942 ft | 497 kts | 47° |
| 2026-04-25 15:25 | 34.06417 | -78.75432 | 38954 ft | 497 kts | 47° |
| 2026-04-25 15:25 | 34.10897 | -78.69068 | 38953 ft | 497 kts | 47° |
| 2026-04-25 15:26 | 34.15371 | -78.62701 | 38958 ft | 498 kts | 47° |
| 2026-04-25 15:26 | 34.19852 | -78.56313 | 38956 ft | 498 kts | 47° |
| 2026-04-25 15:27 | 34.24330 | -78.49919 | 38952 ft | 497 kts | 46° |
| 2026-04-25 15:28 | 34.31967 | -78.41494 | 38940 ft | 497 kts | 39° |
| 2026-04-25 15:28 | 34.37154 | -78.35954 | 38934 ft | 497 kts | 39° |
| 2026-04-25 15:29 | 34.42312 | -78.30434 | 38930 ft | 497 kts | 39° |
| 2026-04-25 15:29 | 34.47498 | -78.24875 | 38923 ft | 498 kts | 39° |
| 2026-04-25 15:30 | 34.52682 | -78.19308 | 38934 ft | 498 kts | 39° |
| 2026-04-25 15:30 | 34.57864 | -78.13732 | 38940 ft | 498 kts | 39° |
| 2026-04-25 15:31 | 34.63057 | -78.08138 | 38936 ft | 498 kts | 39° |
| 2026-04-25 15:31 | 34.68244 | -78.02537 | 38930 ft | 499 kts | 39° |
| 2026-04-25 15:32 | 34.73434 | -77.96925 | 38934 ft | 499 kts | 39° |
| 2026-04-25 15:32 | 34.78621 | -77.91306 | 38939 ft | 500 kts | 39° |
| 2026-04-25 15:33 | 34.86384 | -77.82878 | 38939 ft | 500 kts | 38° |
| 2026-04-25 15:33 | 34.91697 | -77.77397 | 38939 ft | 499 kts | 38° |
| 2026-04-25 15:34 | 34.96957 | -77.71902 | 38936 ft | 498 kts | 37° |
| 2026-04-25 15:34 | 35.00476 | -77.68292 | 38934 ft | 499 kts | 37° |
| 2026-04-25 15:35 | 35.09280 | -77.59123 | 38929 ft | 499 kts | 37° |
| 2026-04-25 15:36 | 35.17423 | -77.51219 | 38926 ft | 498 kts | 32° |
| 2026-04-25 15:36 | 35.23046 | -77.46267 | 38928 ft | 498 kts | 32° |
| 2026-04-25 15:37 | 35.28674 | -77.41298 | 38929 ft | 499 kts | 32° |
| 2026-04-25 15:37 | 35.34305 | -77.36320 | 38923 ft | 499 kts | 32° |
| 2026-04-25 15:38 | 35.39918 | -77.31348 | 38907 ft | 498 kts | 32° |
| 2026-04-25 15:38 | 35.45548 | -77.26354 | 38909 ft | 499 kts | 32° |
| 2026-04-25 15:39 | 35.51171 | -77.21355 | 38914 ft | 499 kts | 32° |
| 2026-04-25 15:39 | 35.56800 | -77.16344 | 38926 ft | 499 kts | 32° |
| 2026-04-25 15:40 | 35.61422 | -77.12221 | 38922 ft | 500 kts | 32° |
| 2026-04-25 15:40 | 35.67960 | -77.06380 | 38924 ft | 500 kts | 32° |
| 2026-04-25 15:41 | 35.73585 | -77.01346 | 38915 ft | 500 kts | 32° |
| 2026-04-25 15:41 | 35.79205 | -76.96306 | 38901 ft | 499 kts | 32° |
| 2026-04-25 15:42 | 35.84836 | -76.91247 | 38901 ft | 500 kts | 32° |
| 2026-04-25 15:42 | 35.90436 | -76.86216 | 38893 ft | 499 kts | 30° |
| 2026-04-25 15:43 | 35.96443 | -76.82046 | 38908 ft | 497 kts | 24° |
| 2026-04-25 15:43 | 36.02532 | -76.77955 | 38911 ft | 497 kts | 24° |
| 2026-04-25 15:44 | 36.08616 | -76.73884 | 38913 ft | 497 kts | 24° |
| 2026-04-25 15:44 | 36.14690 | -76.69798 | 38909 ft | 498 kts | 24° |
| 2026-04-25 15:45 | 36.20780 | -76.65702 | 38905 ft | 497 kts | 24° |
| 2026-04-25 15:45 | 36.25834 | -76.62294 | 38902 ft | 498 kts | 24° |
| 2026-04-25 15:46 | 36.32948 | -76.57490 | 38888 ft | 497 kts | 24° |
| 2026-04-25 15:46 | 36.39002 | -76.53393 | 38884 ft | 495 kts | 24° |
| 2026-04-25 15:47 | 36.45050 | -76.49295 | 38885 ft | 494 kts | 24° |
| 2026-04-25 15:47 | 36.51046 | -76.45222 | 38890 ft | 494 kts | 24° |
| 2026-04-25 15:48 | 36.57084 | -76.41115 | 38898 ft | 495 kts | 24° |
| 2026-04-25 15:48 | 36.63132 | -76.36994 | 38902 ft | 496 kts | 24° |
| 2026-04-25 15:49 | 36.69187 | -76.32860 | 38907 ft | 495 kts | 24° |
| 2026-04-25 15:49 | 36.75235 | -76.28723 | 38904 ft | 496 kts | 24° |
| 2026-04-25 15:50 | 36.81282 | -76.24580 | 38884 ft | 496 kts | 24° |
| 2026-04-25 15:50 | 36.87339 | -76.20422 | 38892 ft | 497 kts | 24° |
| 2026-04-25 15:51 | 36.92409 | -76.16936 | 38898 ft | 497 kts | 24° |
| 2026-04-25 15:51 | 36.99463 | -76.12077 | 38892 ft | 498 kts | 24° |
| 2026-04-25 15:52 | 37.05539 | -76.07884 | 38896 ft | 499 kts | 24° |
| 2026-04-25 15:52 | 37.11617 | -76.03686 | 38904 ft | 498 kts | 21° |
| 2026-04-25 15:53 | 37.17860 | -76.00150 | 38911 ft | 495 kts | 19° |
| 2026-04-25 15:53 | 37.24160 | -75.96604 | 38917 ft | 496 kts | 18° |
| 2026-04-25 15:54 | 37.30466 | -75.93075 | 38921 ft | 496 kts | 18° |
| 2026-04-25 15:54 | 37.36774 | -75.89523 | 38925 ft | 496 kts | 18° |
| 2026-04-25 15:55 | 37.43083 | -75.85972 | 38925 ft | 496 kts | 18° |
| 2026-04-25 15:55 | 37.49380 | -75.82417 | 38938 ft | 496 kts | 18° |
| 2026-04-25 15:56 | 37.55670 | -75.78861 | 38936 ft | 495 kts | 18° |
| 2026-04-25 15:56 | 37.61930 | -75.75315 | 38940 ft | 496 kts | 18° |
| 2026-04-25 15:57 | 37.68231 | -75.71740 | 38949 ft | 496 kts | 18° |
| 2026-04-25 15:57 | 37.74528 | -75.68159 | 38966 ft | 496 kts | 18° |
| 2026-04-25 15:58 | 37.80834 | -75.64567 | 38976 ft | 496 kts | 18° |
| 2026-04-25 15:58 | 37.86905 | -75.60307 | 38986 ft | 505 kts | 28° |
| 2026-04-25 15:59 | 37.92697 | -75.55259 | 38992 ft | 505 kts | 29° |
| 2026-04-25 15:59 | 37.98476 | -75.50224 | 38992 ft | 504 kts | 28° |
| 2026-04-25 16:00 | 38.02323 | -75.46875 | 38995 ft | 504 kts | 29° |
| 2026-04-25 16:00 | 38.09945 | -75.39869 | 38980 ft | 505 kts | 30° |
| 2026-04-25 16:01 | 38.15575 | -75.34617 | 38991 ft | 504 kts | 31° |
| 2026-04-25 16:01 | 38.21195 | -75.29281 | 39003 ft | 503 kts | 31° |
| 2026-04-25 16:02 | 38.26818 | -75.23985 | 39013 ft | 502 kts | 31° |
| 2026-04-25 16:02 | 38.32424 | -75.18663 | 39010 ft | 501 kts | 31° |
| 2026-04-25 16:03 | 38.37991 | -75.13386 | 39011 ft | 502 kts | 31° |
| 2026-04-25 16:03 | 38.43583 | -75.08063 | 39002 ft | 501 kts | 31° |
| 2026-04-25 16:04 | 38.49034 | -75.02501 | 39011 ft | 504 kts | 36° |
| 2026-04-25 16:04 | 38.54286 | -74.96752 | 39023 ft | 500 kts | 32° |
| 2026-04-25 16:05 | 38.59696 | -74.91128 | 39011 ft | 502 kts | 33° |
| 2026-04-25 16:06 | 38.67849 | -74.82661 | 39020 ft | 502 kts | 33° |
| 2026-04-25 16:06 | 38.73260 | -74.76999 | 39035 ft | 501 kts | 33° |
| 2026-04-25 16:07 | 38.78486 | -74.71108 | 39033 ft | 504 kts | 36° |
| 2026-04-25 16:07 | 38.83714 | -74.65044 | 39042 ft | 503 kts | 37° |
| 2026-04-25 16:08 | 38.88846 | -74.59015 | 39038 ft | 503 kts | 37° |
| 2026-04-25 16:08 | 38.94012 | -74.52976 | 39043 ft | 501 kts | 35° |
| 2026-04-25 16:09 | 38.99347 | -74.47232 | 39050 ft | 500 kts | 34° |
| 2026-04-25 16:09 | 39.04660 | -74.41477 | 39056 ft | 499 kts | 34° |
| 2026-04-25 16:10 | 39.09987 | -74.35739 | 39048 ft | 499 kts | 34° |
| 2026-04-25 16:10 | 39.15305 | -74.29968 | 39058 ft | 499 kts | 34° |
| 2026-04-25 16:11 | 39.20617 | -74.24211 | 39060 ft | 499 kts | 34° |
| 2026-04-25 16:11 | 39.25924 | -74.18436 | 39072 ft | 498 kts | 34° |
| 2026-04-25 16:12 | 39.31182 | -74.12709 | 39058 ft | 497 kts | 34° |
| 2026-04-25 16:12 | 39.36459 | -74.06947 | 39067 ft | 496 kts | 34° |
| 2026-04-25 16:13 | 39.41765 | -74.01143 | 39073 ft | 497 kts | 34° |
| 2026-04-25 16:13 | 39.46985 | -73.95412 | 39078 ft | 496 kts | 34° |
| 2026-04-25 16:14 | 39.52246 | -73.89627 | 39079 ft | 496 kts | 34° |
| 2026-04-25 16:14 | 39.57498 | -73.83840 | 39087 ft | 496 kts | 34° |
| 2026-04-25 16:15 | 39.62755 | -73.78033 | 39085 ft | 496 kts | 34° |
| 2026-04-25 16:15 | 39.67998 | -73.72231 | 39090 ft | 494 kts | 34° |
| 2026-04-25 16:16 | 39.72382 | -73.67371 | 39098 ft | 495 kts | 34° |
| 2026-04-25 16:16 | 39.77597 | -73.61577 | 39098 ft | 496 kts | 34° |
| 2026-04-25 16:17 | 39.82844 | -73.55737 | 39103 ft | 496 kts | 34° |
| 2026-04-25 16:17 | 39.87554 | -73.49087 | 39110 ft | 505 kts | 45° |
| 2026-04-25 16:18 | 39.91934 | -73.41971 | 39111 ft | 505 kts | 45° |
| 2026-04-25 16:18 | 39.96343 | -73.34843 | 39100 ft | 505 kts | 45° |
| 2026-04-25 16:19 | 40.00734 | -73.27705 | 39118 ft | 505 kts | 45° |
| 2026-04-25 16:19 | 40.05132 | -73.20548 | 39123 ft | 504 kts | 45° |
| 2026-04-25 16:20 | 40.11978 | -73.10258 | 39124 ft | 497 kts | 39° |
| 2026-04-25 16:21 | 40.19207 | -73.00543 | 39128 ft | 496 kts | 39° |
| 2026-04-25 16:21 | 40.24033 | -72.94095 | 39139 ft | 496 kts | 39° |
| 2026-04-25 16:22 | 40.28845 | -72.87617 | 39137 ft | 495 kts | 39° |
| 2026-04-25 16:22 | 40.33627 | -72.81190 | 39146 ft | 495 kts | 40° |
| 2026-04-25 16:23 | 40.38421 | -72.74716 | 39140 ft | 494 kts | 40° |
| 2026-04-25 16:23 | 40.43213 | -72.68242 | 39152 ft | 494 kts | 40° |
| 2026-04-25 16:24 | 40.47995 | -72.61760 | 39154 ft | 494 kts | 40° |
| 2026-04-25 16:24 | 40.52771 | -72.55276 | 39162 ft | 493 kts | 40° |
| 2026-04-25 16:25 | 40.57541 | -72.48784 | 39159 ft | 493 kts | 40° |
| 2026-04-25 16:25 | 40.62304 | -72.42288 | 39162 ft | 493 kts | 40° |
| 2026-04-25 16:26 | 40.67058 | -72.35790 | 39159 ft | 493 kts | 40° |
| 2026-04-25 16:26 | 40.71809 | -72.29282 | 39158 ft | 492 kts | 40° |
| 2026-04-25 16:27 | 40.76441 | -72.22704 | 39175 ft | 497 kts | 48° |
| 2026-04-25 16:27 | 40.79728 | -72.14548 | 39184 ft | 513 kts | 66° |
| 2026-04-25 16:28 | 40.82090 | -72.05642 | 39162 ft | 515 kts | 65° |
| 2026-04-25 16:28 | 40.84429 | -71.96698 | 39171 ft | 514 kts | 65° |
| 2026-04-25 16:29 | 40.86774 | -71.87769 | 39165 ft | 515 kts | 65° |
| 2026-04-25 16:29 | 40.89106 | -71.78817 | 39169 ft | 515 kts | 65° |
| 2026-04-25 16:30 | 40.91423 | -71.69911 | 39157 ft | 515 kts | 65° |
| 2026-04-25 16:30 | 40.93747 | -71.60935 | 39159 ft | 516 kts | 65° |
| 2026-04-25 16:31 | 40.96126 | -71.51996 | 39155 ft | 514 kts | 65° |
| 2026-04-25 16:31 | 40.98476 | -71.43052 | 39158 ft | 514 kts | 65° |
| 2026-04-25 16:32 | 41.00769 | -71.34074 | 39167 ft | 517 kts | 70° |
| 2026-04-25 16:32 | 41.02735 | -71.24888 | 39158 ft | 519 kts | 69° |
| 2026-04-25 16:33 | 41.04698 | -71.15739 | 39153 ft | 521 kts | 69° |
| 2026-04-25 16:33 | 41.06996 | -71.06726 | 39173 ft | 510 kts | 56° |
| 2026-04-25 16:34 | 41.10825 | -70.98924 | 39153 ft | 503 kts | 49° |
| 2026-04-25 16:34 | 41.14871 | -70.91338 | 39149 ft | 503 kts | 48° |
| 2026-04-25 16:35 | 41.18886 | -70.83728 | 39147 ft | 503 kts | 49° |
| 2026-04-25 16:35 | 41.22884 | -70.76164 | 39154 ft | 502 kts | 48° |
| 2026-04-25 16:36 | 41.26885 | -70.68561 | 39152 ft | 502 kts | 48° |
| 2026-04-25 16:36 | 41.30884 | -70.60949 | 39158 ft | 501 kts | 48° |
| 2026-04-25 16:37 | 41.34871 | -70.53340 | 39153 ft | 501 kts | 48° |
| 2026-04-25 16:37 | 41.38848 | -70.45730 | 39152 ft | 500 kts | 48° |
| 2026-04-25 16:38 | 41.42813 | -70.38124 | 39149 ft | 499 kts | 48° |
| 2026-04-25 16:38 | 41.46737 | -70.30579 | 39137 ft | 498 kts | 48° |
| 2026-04-25 16:39 | 41.50678 | -70.22981 | 39141 ft | 497 kts | 48° |
| 2026-04-25 16:39 | 41.54595 | -70.15413 | 39141 ft | 495 kts | 48° |
| 2026-04-25 16:40 | 41.58502 | -70.07846 | 39150 ft | 496 kts | 48° |
| 2026-04-25 16:40 | 41.62429 | -70.00220 | 39156 ft | 499 kts | 48° |
| 2026-04-25 16:41 | 41.66367 | -69.92551 | 39151 ft | 501 kts | 48° |
| 2026-04-25 16:41 | 41.72274 | -69.81014 | 39148 ft | 500 kts | 48° |
| 2026-04-25 16:42 | 41.75779 | -69.72985 | 39155 ft | 511 kts | 58° |
| 2026-04-25 16:42 | 41.78700 | -69.64300 | 39152 ft | 512 kts | 59° |
| 2026-04-25 16:43 | 41.81618 | -69.55597 | 39154 ft | 511 kts | 59° |
| 2026-04-25 16:43 | 41.84532 | -69.46895 | 39148 ft | 511 kts | 59° |
| 2026-04-25 16:44 | 41.87438 | -69.38172 | 39147 ft | 511 kts | 59° |
| 2026-04-25 16:44 | 41.90342 | -69.29445 | 39147 ft | 512 kts | 59° |
| 2026-04-25 16:45 | 41.93220 | -69.20753 | 39143 ft | 513 kts | 59° |
| 2026-04-25 16:45 | 41.96113 | -69.11996 | 39141 ft | 513 kts | 59° |
| 2026-04-25 16:46 | 41.99006 | -69.03210 | 39138 ft | 514 kts | 59° |
| 2026-04-25 16:46 | 42.00935 | -68.97334 | 39139 ft | 514 kts | 59° |
| 2026-04-25 16:47 | 42.04770 | -68.85617 | 39139 ft | 514 kts | 60° |
| 2026-04-25 16:47 | 42.07651 | -68.76780 | 39131 ft | 515 kts | 60° |
| 2026-04-25 16:48 | 42.10519 | -68.67953 | 39133 ft | 515 kts | 60° |
| 2026-04-25 16:48 | 42.13370 | -68.59152 | 39120 ft | 514 kts | 60° |
| 2026-04-25 16:49 | 42.16231 | -68.50294 | 39126 ft | 515 kts | 60° |
| 2026-04-25 16:49 | 42.19085 | -68.41424 | 39129 ft | 516 kts | 60° |
| 2026-04-25 16:50 | 42.21936 | -68.32534 | 39130 ft | 516 kts | 60° |
| 2026-04-25 16:50 | 42.24762 | -68.23695 | 39121 ft | 516 kts | 60° |
| 2026-04-25 16:51 | 42.27600 | -68.14788 | 39120 ft | 516 kts | 60° |
| 2026-04-25 16:51 | 42.29494 | -68.08828 | 39120 ft | 516 kts | 60° |
| 2026-04-25 16:52 | 42.33266 | -67.96916 | 39103 ft | 516 kts | 61° |
| 2026-04-25 16:52 | 42.36062 | -67.88054 | 39111 ft | 516 kts | 61° |
| 2026-04-25 16:53 | 42.40279 | -67.74628 | 39115 ft | 517 kts | 61° |
| 2026-04-25 16:54 | 42.43084 | -67.65662 | 39108 ft | 518 kts | 61° |
| 2026-04-25 16:54 | 42.45887 | -67.56672 | 39108 ft | 518 kts | 61° |
| 2026-04-25 16:55 | 42.48664 | -67.47732 | 39102 ft | 518 kts | 62° |
| 2026-04-25 16:55 | 42.51457 | -67.38713 | 39100 ft | 518 kts | 62° |
| 2026-04-25 16:56 | 42.54241 | -67.29691 | 39099 ft | 519 kts | 62° |
| 2026-04-25 16:56 | 42.57020 | -67.20653 | 39093 ft | 518 kts | 62° |
| 2026-04-25 16:57 | 42.59794 | -67.11601 | 39090 ft | 519 kts | 62° |
| 2026-04-25 16:57 | 42.62556 | -67.02559 | 39090 ft | 518 kts | 62° |
| 2026-04-25 16:58 | 42.65075 | -66.93422 | 39090 ft | 520 kts | 65° |
| 2026-04-25 16:58 | 42.67579 | -66.84192 | 39087 ft | 520 kts | 65° |
| 2026-04-25 16:59 | 42.70017 | -66.74945 | 39070 ft | 521 kts | 65° |
| 2026-04-25 16:59 | 42.72485 | -66.65690 | 39066 ft | 520 kts | 65° |
| 2026-04-25 17:00 | 42.74906 | -66.56497 | 39067 ft | 519 kts | 65° |
| 2026-04-25 17:00 | 42.77343 | -66.47250 | 39071 ft | 519 kts | 65° |
| 2026-04-25 17:01 | 42.79774 | -66.37970 | 39055 ft | 520 kts | 66° |
| 2026-04-25 17:01 | 42.82203 | -66.28672 | 39061 ft | 520 kts | 66° |
| 2026-04-25 17:02 | 42.84605 | -66.19434 | 39050 ft | 520 kts | 66° |
| 2026-04-25 17:02 | 42.86610 | -66.11698 | 39046 ft | 520 kts | 66° |
| 2026-04-25 17:03 | 42.89014 | -66.02391 | 39039 ft | 520 kts | 66° |
| 2026-04-25 17:03 | 42.91399 | -65.93120 | 39040 ft | 520 kts | 66° |
| 2026-04-25 17:04 | 42.93786 | -65.83805 | 39029 ft | 520 kts | 66° |
| 2026-04-25 17:04 | 42.96167 | -65.74475 | 39021 ft | 520 kts | 66° |
| 2026-04-25 17:05 | 42.98544 | -65.65127 | 39035 ft | 521 kts | 66° |
| 2026-04-25 17:05 | 43.02084 | -65.51132 | 39015 ft | 521 kts | 67° |
| 2026-04-25 17:06 | 43.04441 | -65.41767 | 39007 ft | 520 kts | 67° |
| 2026-04-25 17:06 | 43.06791 | -65.32395 | 39004 ft | 522 kts | 67° |
| 2026-04-25 17:07 | 43.09145 | -65.22965 | 38998 ft | 524 kts | 67° |
| 2026-04-25 17:07 | 43.11495 | -65.13513 | 38995 ft | 525 kts | 67° |
| 2026-04-25 17:08 | 43.13826 | -65.04100 | 38992 ft | 525 kts | 68° |
| 2026-04-25 17:08 | 43.16165 | -64.94620 | 38990 ft | 525 kts | 68° |
| 2026-04-25 17:09 | 43.18492 | -64.85147 | 38986 ft | 525 kts | 68° |
| 2026-04-25 17:09 | 43.20815 | -64.75649 | 38982 ft | 525 kts | 68° |
| 2026-04-25 17:10 | 43.23123 | -64.66174 | 38982 ft | 524 kts | 68° |
| 2026-04-25 17:10 | 43.24244 | -64.61561 | 38984 ft | 0 kts | 68° |
| 2026-04-25 17:10 | 43.25387 | -64.57678 | 39086 ft | 512 kts | 65° |
| 2026-04-25 17:11 | 43.26537 | -64.53037 | 38971 ft | 503 kts | 70° |
| 2026-04-25 17:11 | 43.27462 | -64.48498 | 38957 ft | 502 kts | 71° |
| 2026-04-25 17:11 | 43.29566 | -64.39315 | 38971 ft | 506 kts | 66° |
| 2026-04-25 17:12 | 43.31868 | -64.30079 | 38971 ft | 515 kts | 69° |
| 2026-04-25 17:12 | 43.34056 | -64.20638 | 38966 ft | 521 kts | 68° |
| 2026-04-25 17:13 | 43.35969 | -64.12793 | 38966 ft | 517 kts | 69° |
| 2026-04-25 17:13 | 43.38543 | -64.01795 | 38959 ft | 517 kts | 69° |
| 2026-04-25 17:14 | 43.40782 | -63.92376 | 38958 ft | 518 kts | 69° |
| 2026-04-25 17:14 | 43.42970 | -63.83008 | 38952 ft | 518 kts | 69° |
| 2026-04-25 17:15 | 43.45183 | -63.73586 | 38956 ft | 517 kts | 69° |
| 2026-04-25 17:15 | 43.47378 | -63.64124 | 38947 ft | 519 kts | 69° |
| 2026-04-25 17:16 | 43.49588 | -63.54607 | 38938 ft | 524 kts | 69° |
| 2026-04-25 17:16 | 43.51800 | -63.45017 | 38938 ft | 525 kts | 69° |
| 2026-04-25 17:17 | 43.53989 | -63.35488 | 38930 ft | 523 kts | 69° |
| 2026-04-25 17:17 | 43.56173 | -63.25948 | 38925 ft | 522 kts | 70° |
| 2026-04-25 17:18 | 43.58349 | -63.16395 | 38916 ft | 521 kts | 70° |
| 2026-04-25 17:18 | 43.60515 | -63.06849 | 38912 ft | 522 kts | 70° |
| 2026-04-25 17:19 | 43.62671 | -62.97298 | 38910 ft | 521 kts | 70° |
| 2026-04-25 17:19 | 43.64818 | -62.87743 | 38711 ft | 519 kts | 69° |
| 2026-04-25 17:20 | 43.65874 | -62.83023 | 38821 ft | 511 kts | 69° |
| 2026-04-25 17:20 | 43.66927 | -62.78324 | 38887 ft | 511 kts | 69° |
| 2026-04-25 17:20 | 43.69020 | -62.68943 | 38887 ft | 516 kts | 69° |
| 2026-04-25 17:21 | 43.71121 | -62.59462 | 38891 ft | 516 kts | 69° |
| 2026-04-25 17:21 | 43.44005 | -63.78606 | 38950 ft | 503 kts | 69° |
| 2026-04-25 17:22 | 43.45790 | -63.70967 | 38944 ft | 508 kts | 69° |
| 2026-04-25 17:22 | 43.45315 | -63.72971 | 38884 ft | 478 kts | 69° |
| 2026-04-25 17:23 | 43.46337 | -63.68590 | 38686 ft | 479 kts | 69° |
| 2026-04-25 17:23 | 43.47354 | -63.64242 | 37945 ft | 479 kts | 69° |
| 2026-04-25 17:23 | 43.49393 | -63.55448 | 37932 ft | 485 kts | 69° |
| 2026-04-25 17:24 | 43.51441 | -63.46574 | 37933 ft | 492 kts | 69° |
| 2026-04-25 17:24 | 43.53528 | -63.37505 | 37932 ft | 499 kts | 69° |
| 2026-04-25 17:25 | 43.55629 | -63.28328 | 37932 ft | 503 kts | 69° |
| 2026-04-25 17:25 | 43.57698 | -63.19246 | 37916 ft | 489 kts | 69° |
| 2026-04-25 17:26 | 43.59740 | -63.10279 | 37903 ft | 492 kts | 69° |
| 2026-04-25 17:26 | 43.61770 | -63.01282 | 37900 ft | 489 kts | 69° |
| 2026-04-25 17:27 | 43.58275 | -63.16703 | 37962 ft | 446 kts | 69° |
| 2026-04-25 17:27 | 43.59216 | -63.12551 | 37575 ft | 459 kts | 69° |
| 2026-04-25 17:27 | 43.60496 | -63.06956 | 37501 ft | 467 kts | 69° |
| 2026-04-25 17:28 | 43.62104 | -62.99807 | 37723 ft | 467 kts | 69° |
| 2026-04-25 17:28 | 43.63065 | -62.95529 | 37893 ft | 467 kts | 69° |
| 2026-04-25 17:28 | 43.65011 | -62.86897 | 37721 ft | 471 kts | 69° |
| 2026-04-25 17:29 | 43.65976 | -62.82577 | 37881 ft | 469 kts | 69° |
| 2026-04-25 17:29 | 43.66942 | -62.78255 | 37893 ft | 472 kts | 69° |
| 2026-04-25 17:29 | 43.68892 | -62.69519 | 37885 ft | 479 kts | 69° |
| 2026-04-25 17:30 | 43.70843 | -62.60722 | 37888 ft | 482 kts | 69° |
| 2026-04-25 17:30 | 43.72806 | -62.51843 | 37888 ft | 482 kts | 69° |
| 2026-04-25 17:31 | 43.74760 | -62.42968 | 37864 ft | 482 kts | 69° |
| 2026-04-25 17:31 | 43.76708 | -62.34083 | 37867 ft | 483 kts | 69° |
| 2026-04-25 17:32 | 43.78649 | -62.25191 | 37861 ft | 483 kts | 69° |
| 2026-04-25 17:32 | 43.80585 | -62.16289 | 37857 ft | 483 kts | 70° |
| 2026-04-25 17:33 | 43.82522 | -62.07337 | 37852 ft | 483 kts | 70° |
| 2026-04-25 17:33 | 43.84443 | -61.98426 | 37843 ft | 483 kts | 70° |
| 2026-04-25 17:34 | 43.86360 | -61.89495 | 37845 ft | 483 kts | 70° |
| 2026-04-25 17:34 | 43.88270 | -61.80559 | 37843 ft | 484 kts | 70° |
| 2026-04-25 17:35 | 43.90178 | -61.71598 | 37844 ft | 485 kts | 70° |
| 2026-04-25 17:35 | 43.92067 | -61.62682 | 37839 ft | 485 kts | 70° |
| 2026-04-25 17:36 | 43.93927 | -61.53865 | 37835 ft | 485 kts | 70° |
| 2026-04-25 17:36 | 43.95813 | -61.44887 | 37828 ft | 485 kts | 70° |
| 2026-04-25 17:37 | 43.97701 | -61.35860 | 37830 ft | 485 kts | 70° |
| 2026-04-25 17:37 | 43.99578 | -61.26850 | 37823 ft | 485 kts | 70° |
| 2026-04-25 17:38 | 44.00818 | -61.20873 | 37823 ft | 486 kts | 70° |
| 2026-04-25 17:38 | 44.03295 | -61.08879 | 37813 ft | 485 kts | 70° |
| 2026-04-25 17:39 | 44.05152 | -60.99843 | 37802 ft | 485 kts | 70° |
| 2026-04-25 17:39 | 44.06997 | -60.90826 | 37797 ft | 485 kts | 71° |
| 2026-04-25 17:40 | 44.08836 | -60.81799 | 37788 ft | 485 kts | 71° |
| 2026-04-25 17:40 | 44.10670 | -60.72750 | 37788 ft | 486 kts | 71° |
| 2026-04-25 17:41 | 44.12498 | -60.63692 | 37787 ft | 487 kts | 71° |
| 2026-04-25 17:41 | 44.14314 | -60.54660 | 37770 ft | 487 kts | 71° |
| 2026-04-25 17:42 | 44.16134 | -60.45558 | 37772 ft | 487 kts | 71° |
| 2026-04-25 17:42 | 44.17942 | -60.36483 | 37779 ft | 487 kts | 71° |
| 2026-04-25 17:43 | 44.19746 | -60.27374 | 37775 ft | 487 kts | 71° |
| 2026-04-25 17:43 | 44.21532 | -60.18322 | 37766 ft | 487 kts | 71° |
| 2026-04-25 17:44 | 44.23326 | -60.09187 | 37761 ft | 487 kts | 71° |
| 2026-04-25 17:44 | 44.25107 | -60.00075 | 37751 ft | 486 kts | 71° |
| 2026-04-25 17:45 | 44.26287 | -59.94010 | 37752 ft | 486 kts | 72° |
| 2026-04-25 17:45 | 44.28589 | -59.82135 | 37753 ft | 485 kts | 72° |
| 2026-04-25 17:46 | 44.30332 | -59.73093 | 37744 ft | 486 kts | 72° |
| 2026-04-25 17:46 | 44.32080 | -59.63976 | 37739 ft | 486 kts | 72° |
| 2026-04-25 17:47 | 44.33823 | -59.54848 | 37737 ft | 486 kts | 72° |
| 2026-04-25 17:47 | 44.35558 | -59.45718 | 37727 ft | 486 kts | 72° |
| 2026-04-25 17:48 | 44.37859 | -59.33543 | 37731 ft | 487 kts | 72° |
| 2026-04-25 17:49 | 44.39582 | -59.24372 | 37718 ft | 487 kts | 72° |
| 2026-04-25 17:49 | 44.41297 | -59.15203 | 37721 ft | 489 kts | 72° |
| 2026-04-25 17:50 | 44.43014 | -59.05979 | 37713 ft | 497 kts | 72° |
| 2026-04-25 17:50 | 44.44756 | -58.96560 | 37704 ft | 500 kts | 72° |
| 2026-04-25 17:51 | 44.46494 | -58.87130 | 37703 ft | 500 kts | 72° |
| 2026-04-25 17:51 | 44.48224 | -58.77691 | 37695 ft | 499 kts | 72° |
| 2026-04-25 17:52 | 44.49945 | -58.68254 | 37693 ft | 500 kts | 73° |
| 2026-04-25 17:52 | 44.51657 | -58.58816 | 37688 ft | 499 kts | 73° |
| 2026-04-25 17:53 | 44.53360 | -58.49383 | 37682 ft | 499 kts | 73° |
| 2026-04-25 17:53 | 44.55054 | -58.39949 | 37665 ft | 499 kts | 73° |
| 2026-04-25 17:54 | 44.56739 | -58.30518 | 37672 ft | 499 kts | 73° |
| 2026-04-25 17:54 | 44.58416 | -58.21077 | 37666 ft | 499 kts | 73° |
| 2026-04-25 17:55 | 44.60075 | -58.11698 | 37661 ft | 498 kts | 73° |
| 2026-04-25 17:55 | 44.61736 | -58.02247 | 37661 ft | 498 kts | 73° |
| 2026-04-25 17:56 | 44.63392 | -57.92787 | 37652 ft | 498 kts | 73° |
| 2026-04-25 17:56 | 44.65036 | -57.83339 | 37642 ft | 499 kts | 74° |
| 2026-04-25 17:57 | 44.66675 | -57.73869 | 37648 ft | 499 kts | 74° |
| 2026-04-25 17:57 | 44.68310 | -57.64374 | 37633 ft | 499 kts | 74° |
| 2026-04-25 17:58 | 44.68702 | -57.62101 | 37642 ft | 487 kts | 74° |
| 2026-04-25 17:58 | 44.70278 | -57.52868 | 37644 ft | 487 kts | 74° |
| 2026-04-25 17:59 | 44.71855 | -57.43613 | 37633 ft | 493 kts | 74° |
| 2026-04-25 17:59 | 44.73449 | -57.34184 | 37619 ft | 498 kts | 74° |
| 2026-04-25 18:00 | 44.75050 | -57.24677 | 37613 ft | 501 kts | 74° |
| 2026-04-25 18:00 | 44.76644 | -57.15146 | 37609 ft | 499 kts | 74° |
| 2026-04-25 18:01 | 44.78231 | -57.05616 | 37605 ft | 500 kts | 75° |
| 2026-04-25 18:01 | 44.79809 | -56.96090 | 37599 ft | 499 kts | 75° |
| 2026-04-25 18:02 | 44.81367 | -56.86616 | 37596 ft | 499 kts | 75° |
| 2026-04-25 18:02 | 44.82927 | -56.77092 | 37590 ft | 499 kts | 75° |
| 2026-04-25 18:03 | 44.84483 | -56.67532 | 37572 ft | 501 kts | 75° |
| 2026-04-25 18:03 | 44.86027 | -56.57998 | 37265 ft | 501 kts | 75° |
| 2026-04-25 18:04 | 44.87567 | -56.48426 | 37331 ft | 502 kts | 75° |
| 2026-04-25 18:04 | 44.88337 | -56.43621 | 37440 ft | 502 kts | 75° |
| 2026-04-25 18:04 | 44.89096 | -56.38870 | 37521 ft | 503 kts | 75° |
| 2026-04-25 18:05 | 44.90631 | -56.29225 | 37563 ft | 505 kts | 75° |
| 2026-04-25 18:05 | 44.92160 | -56.19558 | 37551 ft | 502 kts | 75° |
| 2026-04-25 18:06 | 44.93672 | -56.09936 | 37550 ft | 502 kts | 75° |
| 2026-04-25 18:06 | 44.95178 | -56.00308 | 37548 ft | 502 kts | 75° |
| 2026-04-25 18:07 | 44.96665 | -55.90738 | 37544 ft | 502 kts | 75° |
| 2026-04-25 18:07 | 44.98152 | -55.81114 | 37541 ft | 501 kts | 76° |
| 2026-04-25 18:08 | 44.99631 | -55.71481 | 37287 ft | 502 kts | 75° |
| 2026-04-25 18:08 | 45.00369 | -55.66656 | 37002 ft | 502 kts | 75° |
| 2026-04-25 18:08 | 45.01109 | -55.61804 | 36567 ft | 502 kts | 75° |
| 2026-04-25 18:09 | 45.02572 | -55.52161 | 36547 ft | 504 kts | 75° |
| 2026-04-25 18:09 | 45.04047 | -55.42378 | 36560 ft | 512 kts | 76° |
| 2026-04-25 18:10 | 45.05535 | -55.32451 | 36572 ft | 518 kts | 76° |
| 2026-04-25 18:10 | 45.07018 | -55.22494 | 36583 ft | 521 kts | 76° |
| 2026-04-25 18:11 | 45.08501 | -55.12464 | 36582 ft | 520 kts | 76° |
| 2026-04-25 18:11 | 45.09975 | -55.02445 | 36572 ft | 520 kts | 76° |
| 2026-04-25 18:12 | 45.11439 | -54.92416 | 36561 ft | 520 kts | 76° |
| 2026-04-25 18:12 | 45.12887 | -54.82443 | 36549 ft | 520 kts | 76° |
| 2026-04-25 18:13 | 45.14343 | -54.72347 | 36538 ft | 519 kts | 76° |
| 2026-04-25 18:13 | 45.15769 | -54.62382 | 36525 ft | 519 kts | 76° |
| 2026-04-25 18:14 | 45.17910 | -54.47313 | 36509 ft | 520 kts | 76° |
| 2026-04-25 18:14 | 45.19327 | -54.37246 | 36499 ft | 519 kts | 76° |
| 2026-04-25 18:15 | 45.20725 | -54.27265 | 36495 ft | 519 kts | 76° |
| 2026-04-25 18:15 | 45.22122 | -54.17208 | 36485 ft | 520 kts | 77° |
| 2026-04-25 18:16 | 45.23512 | -54.07138 | 36483 ft | 521 kts | 77° |
| 2026-04-25 18:17 | 45.25581 | -53.92017 | 36460 ft | 519 kts | 77° |
| 2026-04-25 18:17 | 45.26950 | -53.81927 | 36459 ft | 520 kts | 77° |
| 2026-04-25 18:18 | 45.28300 | -53.71910 | 36455 ft | 520 kts | 77° |
| 2026-04-25 18:18 | 45.29648 | -53.61821 | 36453 ft | 520 kts | 77° |
| 2026-04-25 18:19 | 45.30992 | -53.51716 | 36447 ft | 521 kts | 77° |
| 2026-04-25 18:19 | 45.32325 | -53.41597 | 36444 ft | 521 kts | 77° |
| 2026-04-25 18:20 | 45.33655 | -53.31449 | 36436 ft | 522 kts | 77° |
| 2026-04-25 18:20 | 45.34974 | -53.21306 | 36435 ft | 522 kts | 77° |
| 2026-04-25 18:21 | 45.36286 | -53.11125 | 36431 ft | 523 kts | 77° |
| 2026-04-25 18:21 | 45.37583 | -53.01015 | 36429 ft | 523 kts | 78° |
| 2026-04-25 18:22 | 45.38876 | -52.90829 | 36424 ft | 523 kts | 78° |
| 2026-04-25 18:22 | 45.40164 | -52.80640 | 36422 ft | 523 kts | 78° |
| 2026-04-25 18:23 | 45.41442 | -52.70435 | 36420 ft | 523 kts | 78° |
| 2026-04-25 18:23 | 45.42710 | -52.60232 | 36420 ft | 524 kts | 78° |
| 2026-04-25 18:24 | 45.43973 | -52.49994 | 36412 ft | 525 kts | 78° |
| 2026-04-25 18:24 | 45.45228 | -52.39747 | 36410 ft | 525 kts | 78° |
| 2026-04-25 18:25 | 45.46473 | -52.29493 | 36408 ft | 526 kts | 78° |
| 2026-04-25 18:25 | 45.47713 | -52.19204 | 36307 ft | 527 kts | 79° |
| 2026-04-25 18:26 | 45.48939 | -52.08954 | 36340 ft | 526 kts | 79° |
| 2026-04-25 18:26 | 45.50346 | -51.98756 | 36356 ft | 527 kts | 69° |
| 2026-04-25 18:27 | 45.52874 | -51.88948 | 36329 ft | 527 kts | 68° |
| 2026-04-25 18:27 | 45.55435 | -51.79114 | 36325 ft | 528 kts | 68° |
| 2026-04-25 18:28 | 45.57958 | -51.69306 | 36319 ft | 529 kts | 68° |
| 2026-04-25 18:28 | 45.60512 | -51.59391 | 36316 ft | 529 kts | 69° |
| 2026-04-25 18:29 | 45.64297 | -51.44582 | 36305 ft | 529 kts | 69° |
| 2026-04-25 18:30 | 45.69298 | -51.24876 | 36286 ft | 528 kts | 69° |
| 2026-04-25 18:30 | 45.71794 | -51.14976 | 36298 ft | 529 kts | 69° |
| 2026-04-25 18:31 | 45.74283 | -51.05063 | 36281 ft | 530 kts | 69° |
| 2026-04-25 18:31 | 45.76770 | -50.95119 | 36276 ft | 530 kts | 69° |
| 2026-04-25 18:32 | 45.78846 | -50.86778 | 36289 ft | 531 kts | 69° |
| 2026-04-25 18:32 | 45.81321 | -50.76799 | 36270 ft | 531 kts | 69° |
| 2026-04-25 18:33 | 45.83750 | -50.66952 | 36268 ft | 523 kts | 70° |
| 2026-04-25 18:33 | 45.86183 | -50.57064 | 36263 ft | 528 kts | 70° |
| 2026-04-25 18:34 | 45.88619 | -50.47104 | 36258 ft | 529 kts | 70° |
| 2026-04-25 18:34 | 45.91053 | -50.37118 | 36252 ft | 530 kts | 70° |
| 2026-04-25 18:35 | 45.93476 | -50.27129 | 36246 ft | 530 kts | 70° |
| 2026-04-25 18:35 | 45.95897 | -50.17104 | 36244 ft | 530 kts | 70° |
| 2026-04-25 18:36 | 45.98262 | -50.07267 | 36234 ft | 520 kts | 70° |
| 2026-04-25 18:36 | 46.00626 | -49.97409 | 36219 ft | 522 kts | 70° |
| 2026-04-25 18:37 | 46.03136 | -49.87605 | 36225 ft | 527 kts | 69° |
| 2026-04-25 18:37 | 46.05631 | -49.77562 | 36229 ft | 530 kts | 70° |
| 2026-04-25 18:38 | 46.08109 | -49.67655 | 36227 ft | 529 kts | 70° |
| 2026-04-25 18:38 | 46.10589 | -49.57658 | 36220 ft | 529 kts | 70° |
| 2026-04-25 18:39 | 46.13062 | -49.47649 | 36222 ft | 529 kts | 70° |
| 2026-04-25 18:39 | 46.15519 | -49.37673 | 36220 ft | 529 kts | 70° |
| 2026-04-25 18:40 | 46.17972 | -49.27652 | 36217 ft | 529 kts | 70° |
| 2026-04-25 18:40 | 46.20417 | -49.17631 | 36222 ft | 530 kts | 70° |
| 2026-04-25 18:41 | 46.22855 | -49.07587 | 36223 ft | 530 kts | 71° |
| 2026-04-25 18:41 | 46.25287 | -48.97527 | 36222 ft | 531 kts | 71° |
| 2026-04-25 18:42 | 46.27310 | -48.89121 | 36222 ft | 532 kts | 71° |
| 2026-04-25 18:42 | 46.30127 | -48.77365 | 36224 ft | 533 kts | 71° |
| 2026-04-25 18:43 | 46.32549 | -48.67207 | 36228 ft | 534 kts | 71° |
| 2026-04-25 18:43 | 46.34963 | -48.57037 | 36230 ft | 534 kts | 71° |
| 2026-04-25 18:44 | 46.37368 | -48.46857 | 36230 ft | 534 kts | 72° |
| 2026-04-25 18:44 | 46.39749 | -48.36731 | 36241 ft | 534 kts | 72° |
| 2026-04-25 18:45 | 46.42138 | -48.26524 | 36240 ft | 535 kts | 72° |
| 2026-04-25 18:45 | 46.44522 | -48.16292 | 36241 ft | 535 kts | 72° |
| 2026-04-25 18:46 | 46.46893 | -48.06068 | 36244 ft | 535 kts | 72° |
| 2026-04-25 18:46 | 46.49243 | -47.95882 | 36247 ft | 535 kts | 72° |
| 2026-04-25 18:47 | 46.51599 | -47.85629 | 36254 ft | 536 kts | 73° |
| 2026-04-25 18:47 | 46.53952 | -47.75333 | 36267 ft | 537 kts | 73° |
| 2026-04-25 18:48 | 46.56292 | -47.65044 | 36277 ft | 536 kts | 73° |
| 2026-04-25 18:48 | 46.58623 | -47.54752 | 36279 ft | 536 kts | 73° |
| 2026-04-25 18:49 | 46.60942 | -47.44455 | 36282 ft | 535 kts | 73° |
| 2026-04-25 18:49 | 46.63251 | -47.34164 | 36287 ft | 535 kts | 73° |
| 2026-04-25 18:50 | 46.65536 | -47.23921 | 36296 ft | 535 kts | 73° |
| 2026-04-25 18:50 | 46.67824 | -47.13614 | 36301 ft | 535 kts | 74° |
| 2026-04-25 18:51 | 46.69717 | -47.05050 | 36300 ft | 535 kts | 74° |
| 2026-04-25 18:51 | 46.72369 | -46.92999 | 36310 ft | 535 kts | 74° |
| 2026-04-25 18:52 | 46.74631 | -46.82658 | 36327 ft | 535 kts | 74° |
| 2026-04-25 18:52 | 46.76872 | -46.72366 | 36323 ft | 535 kts | 74° |
| 2026-04-25 18:53 | 46.79121 | -46.61989 | 36329 ft | 535 kts | 75° |
| 2026-04-25 18:53 | 46.81355 | -46.51620 | 36342 ft | 536 kts | 75° |
| 2026-04-25 18:54 | 46.84696 | -46.36028 | 36347 ft | 536 kts | 75° |
| 2026-04-25 18:55 | 46.86914 | -46.25607 | 36367 ft | 537 kts | 75° |
| 2026-04-25 18:55 | 46.89106 | -46.15257 | 36373 ft | 537 kts | 75° |
| 2026-04-25 18:56 | 46.91304 | -46.04824 | 36375 ft | 537 kts | 75° |
| 2026-04-25 18:56 | 46.93494 | -45.94379 | 36382 ft | 536 kts | 75° |
| 2026-04-25 18:57 | 46.95672 | -45.83933 | 36386 ft | 536 kts | 75° |
| 2026-04-25 18:57 | 46.97844 | -45.73464 | 36393 ft | 536 kts | 76° |
| 2026-04-25 18:58 | 47.00005 | -45.62990 | 36402 ft | 537 kts | 76° |
| 2026-04-25 18:58 | 47.03217 | -45.47325 | 36410 ft | 538 kts | 76° |
| 2026-04-25 18:59 | 47.07492 | -45.26280 | 36426 ft | 538 kts | 76° |
| 2026-04-25 19:00 | 47.10673 | -45.10479 | 36440 ft | 538 kts | 76° |
| 2026-04-25 19:01 | 47.13817 | -44.94728 | 36442 ft | 537 kts | 77° |
| 2026-04-25 19:01 | 47.15907 | -44.84192 | 36448 ft | 537 kts | 77° |
| 2026-04-25 19:02 | 47.19016 | -44.68410 | 36455 ft | 536 kts | 77° |
| 2026-04-25 19:03 | 47.21428 | -44.56073 | 36460 ft | 537 kts | 77° |
| 2026-04-25 19:03 | 47.24163 | -44.41990 | 36464 ft | 538 kts | 77° |
| 2026-04-25 19:04 | 47.27217 | -44.26139 | 36475 ft | 538 kts | 78° |
| 2026-04-25 19:05 | 47.31265 | -44.04927 | 36484 ft | 538 kts | 78° |
| 2026-04-25 19:06 | 47.33278 | -43.94291 | 36495 ft | 538 kts | 78° |
| 2026-04-25 19:06 | 47.36277 | -43.78329 | 36492 ft | 538 kts | 78° |
| 2026-04-25 19:07 | 47.39251 | -43.62365 | 36504 ft | 538 kts | 78° |
| 2026-04-25 19:08 | 47.42192 | -43.46439 | 36501 ft | 537 kts | 79° |
| 2026-04-25 19:09 | 47.45449 | -43.28642 | 36518 ft | 537 kts | 79° |
| 2026-04-25 19:10 | 47.48989 | -43.09099 | 36511 ft | 537 kts | 79° |
| 2026-04-25 19:10 | 47.50898 | -42.98473 | 36517 ft | 538 kts | 79° |
| 2026-04-25 19:11 | 47.52810 | -42.87769 | 36519 ft | 539 kts | 79° |
| 2026-04-25 19:11 | 47.54718 | -42.77023 | 36517 ft | 538 kts | 79° |
| 2026-04-25 19:12 | 47.56612 | -42.66291 | 36530 ft | 537 kts | 80° |
| 2026-04-25 19:12 | 47.58490 | -42.55583 | 36519 ft | 537 kts | 80° |
| 2026-04-25 19:13 | 47.60357 | -42.44874 | 36527 ft | 537 kts | 80° |
| 2026-04-25 19:13 | 47.62206 | -42.34205 | 36525 ft | 537 kts | 80° |
| 2026-04-25 19:14 | 47.64055 | -42.23475 | 36528 ft | 537 kts | 80° |
| 2026-04-25 19:14 | 47.65893 | -42.12735 | 36535 ft | 537 kts | 81° |
| 2026-04-25 19:15 | 47.67725 | -42.01967 | 36532 ft | 538 kts | 81° |
| 2026-04-25 19:15 | 47.69547 | -41.91194 | 36531 ft | 538 kts | 81° |
| 2026-04-25 19:16 | 47.71055 | -41.82226 | 36534 ft | 538 kts | 81° |
| 2026-04-25 19:16 | 47.72860 | -41.71428 | 36543 ft | 538 kts | 81° |
| 2026-04-25 19:17 | 47.74656 | -41.60613 | 36543 ft | 538 kts | 81° |
| 2026-04-25 19:17 | 47.76438 | -41.49818 | 36536 ft | 538 kts | 81° |
| 2026-04-25 19:18 | 47.78200 | -41.39077 | 36547 ft | 538 kts | 82° |
| 2026-04-25 19:18 | 47.79965 | -41.28238 | 36540 ft | 537 kts | 82° |
| 2026-04-25 19:19 | 47.81719 | -41.17420 | 36547 ft | 538 kts | 82° |
| 2026-04-25 19:19 | 47.83458 | -41.06594 | 36541 ft | 538 kts | 82° |
| 2026-04-25 19:20 | 47.85190 | -40.95757 | 36554 ft | 538 kts | 82° |
| 2026-04-25 19:20 | 47.86913 | -40.84910 | 36550 ft | 539 kts | 82° |
| 2026-04-25 19:21 | 47.88625 | -40.74052 | 36551 ft | 539 kts | 82° |
| 2026-04-25 19:21 | 47.91177 | -40.57738 | 36549 ft | 538 kts | 82° |
| 2026-04-25 19:22 | 47.92854 | -40.46925 | 36559 ft | 538 kts | 82° |
| 2026-04-25 19:23 | 47.95366 | -40.30589 | 36561 ft | 539 kts | 83° |
| 2026-04-25 19:23 | 47.97858 | -40.14220 | 36567 ft | 539 kts | 83° |
| 2026-04-25 19:24 | 47.99509 | -40.03283 | 36567 ft | 540 kts | 83° |
| 2026-04-25 19:25 | 48.00796 | -39.81244 | 36590 ft | 534 kts | 92° |
| 2026-04-25 19:25 | 48.01264 | -39.70163 | 36586 ft | 534 kts | 92° |
| 2026-04-25 19:26 | 48.01705 | -39.59135 | 36580 ft | 535 kts | 93° |
| 2026-04-25 19:26 | 48.02145 | -39.48026 | 36584 ft | 535 kts | 93° |
| 2026-04-25 19:27 | 48.02501 | -39.38799 | 36588 ft | 535 kts | 93° |
| 2026-04-25 19:27 | 48.02988 | -39.25806 | 36591 ft | 536 kts | 93° |
| 2026-04-25 19:28 | 48.03395 | -39.14679 | 36589 ft | 536 kts | 93° |
| 2026-04-25 19:28 | 48.03790 | -39.03565 | 36598 ft | 536 kts | 93° |
| 2026-04-25 19:29 | 48.04176 | -38.92422 | 36599 ft | 537 kts | 93° |
| 2026-04-25 19:29 | 48.04549 | -38.81323 | 36593 ft | 538 kts | 93° |
| 2026-04-25 19:30 | 48.04914 | -38.70151 | 36613 ft | 538 kts | 93° |
| 2026-04-25 19:30 | 48.05268 | -38.58961 | 36607 ft | 539 kts | 93° |
| 2026-04-25 19:31 | 48.05612 | -38.47775 | 36605 ft | 539 kts | 93° |
| 2026-04-25 19:31 | 48.05945 | -38.36566 | 36613 ft | 540 kts | 93° |
| 2026-04-25 19:32 | 48.06266 | -38.25411 | 36610 ft | 540 kts | 93° |
| 2026-04-25 19:32 | 48.06527 | -38.16003 | 36612 ft | 543 kts | 93° |
| 2026-04-25 19:33 | 48.06882 | -38.02845 | 36618 ft | 545 kts | 93° |
| 2026-04-25 19:33 | 48.07174 | -37.91527 | 36620 ft | 544 kts | 93° |
| 2026-04-25 19:34 | 48.07454 | -37.80203 | 36621 ft | 545 kts | 93° |
| 2026-04-25 19:34 | 48.07725 | -37.68868 | 36628 ft | 545 kts | 93° |
| 2026-04-25 19:35 | 48.07984 | -37.57522 | 36634 ft | 545 kts | 93° |
| 2026-04-25 19:35 | 48.08231 | -37.46276 | 36629 ft | 544 kts | 93° |
| 2026-04-25 19:36 | 48.08466 | -37.34967 | 36636 ft | 543 kts | 93° |
| 2026-04-25 19:36 | 48.08692 | -37.23673 | 36647 ft | 542 kts | 93° |
| 2026-04-25 19:37 | 48.08904 | -37.12407 | 36644 ft | 541 kts | 93° |
| 2026-04-25 19:37 | 48.09106 | -37.01177 | 36654 ft | 540 kts | 94° |
| 2026-04-25 19:38 | 48.09297 | -36.89956 | 36658 ft | 539 kts | 94° |
| 2026-04-25 19:38 | 48.09476 | -36.78738 | 36667 ft | 538 kts | 94° |
| 2026-04-25 19:39 | 48.09643 | -36.67631 | 36675 ft | 538 kts | 94° |
| 2026-04-25 19:39 | 48.09800 | -36.56423 | 36672 ft | 538 kts | 94° |
| 2026-04-25 19:40 | 48.09947 | -36.45210 | 36680 ft | 539 kts | 94° |
| 2026-04-25 19:40 | 48.10083 | -36.33997 | 36689 ft | 538 kts | 94° |
| 2026-04-25 19:41 | 48.10207 | -36.22797 | 36685 ft | 538 kts | 94° |
| 2026-04-25 19:41 | 48.10284 | -36.15395 | 36692 ft | 538 kts | 94° |
| 2026-04-25 19:42 | 48.10424 | -36.00439 | 36699 ft | 539 kts | 94° |
| 2026-04-25 19:42 | 48.10516 | -35.89234 | 36699 ft | 539 kts | 94° |
| 2026-04-25 19:43 | 48.10598 | -35.78004 | 36709 ft | 539 kts | 94° |
| 2026-04-25 19:43 | 48.10668 | -35.66774 | 36717 ft | 539 kts | 94° |
| 2026-04-25 19:44 | 48.10728 | -35.55541 | 36723 ft | 540 kts | 94° |
| 2026-04-25 19:44 | 48.10777 | -35.44319 | 36738 ft | 539 kts | 94° |
| 2026-04-25 19:45 | 48.10814 | -35.33075 | 36748 ft | 540 kts | 94° |
| 2026-04-25 19:45 | 48.10841 | -35.21847 | 36751 ft | 540 kts | 94° |
| 2026-04-25 19:46 | 48.10856 | -35.10674 | 36757 ft | 540 kts | 94° |
| 2026-04-25 19:46 | 48.10862 | -34.99426 | 36756 ft | 540 kts | 94° |
| 2026-04-25 19:47 | 48.10855 | -34.88177 | 36763 ft | 541 kts | 94° |
| 2026-04-25 19:47 | 48.10839 | -34.76922 | 36771 ft | 541 kts | 94° |
| 2026-04-25 19:48 | 48.10810 | -34.65651 | 36777 ft | 540 kts | 94° |
| 2026-04-25 19:48 | 48.10782 | -34.57026 | 36783 ft | 540 kts | 94° |
| 2026-04-25 19:49 | 48.10751 | -34.49510 | 36785 ft | 540 kts | 94° |
| 2026-04-25 19:49 | 48.10676 | -34.34552 | 36795 ft | 540 kts | 94° |
| 2026-04-25 19:50 | 48.10568 | -34.17689 | 36809 ft | 540 kts | 94° |
| 2026-04-25 19:51 | 48.10482 | -34.06440 | 36819 ft | 540 kts | 95° |
| 2026-04-25 19:51 | 48.10386 | -33.95297 | 36816 ft | 539 kts | 95° |
| 2026-04-25 19:52 | 48.10279 | -33.84078 | 36825 ft | 539 kts | 95° |
| 2026-04-25 19:52 | 48.10160 | -33.72876 | 36833 ft | 538 kts | 95° |
| 2026-04-25 19:53 | 48.10032 | -33.61680 | 36844 ft | 537 kts | 95° |
| 2026-04-25 19:53 | 48.09892 | -33.50503 | 36851 ft | 536 kts | 95° |
| 2026-04-25 19:54 | 48.09743 | -33.39373 | 36855 ft | 534 kts | 95° |
| 2026-04-25 19:54 | 48.09583 | -33.28325 | 36864 ft | 533 kts | 95° |
| 2026-04-25 19:55 | 48.09412 | -33.17230 | 36875 ft | 533 kts | 95° |
| 2026-04-25 19:55 | 48.09231 | -33.06146 | 36880 ft | 532 kts | 95° |
| 2026-04-25 19:56 | 48.09039 | -32.95062 | 36878 ft | 532 kts | 95° |
| 2026-04-25 19:56 | 48.08837 | -32.84002 | 36896 ft | 532 kts | 95° |
| 2026-04-25 19:57 | 48.08624 | -32.72908 | 36900 ft | 533 kts | 95° |
| 2026-04-25 19:57 | 48.08402 | -32.61908 | 36908 ft | 533 kts | 95° |
| 2026-04-25 19:58 | 48.08168 | -32.50837 | 36914 ft | 532 kts | 95° |
| 2026-04-25 19:58 | 48.07923 | -32.39770 | 36917 ft | 532 kts | 95° |
| 2026-04-25 19:59 | 48.07667 | -32.28698 | 36920 ft | 532 kts | 95° |
| 2026-04-25 19:59 | 48.07401 | -32.17632 | 36932 ft | 532 kts | 95° |
| 2026-04-25 20:00 | 48.07172 | -32.08437 | 36934 ft | 532 kts | 95° |
| 2026-04-25 20:00 | 48.06839 | -31.95578 | 36938 ft | 532 kts | 95° |
| 2026-04-25 20:01 | 48.06439 | -31.80785 | 36964 ft | 532 kts | 95° |
| 2026-04-25 20:01 | 48.06129 | -31.69796 | 36950 ft | 532 kts | 95° |
| 2026-04-25 20:02 | 48.05807 | -31.58760 | 36953 ft | 530 kts | 95° |
| 2026-04-25 20:02 | 48.05474 | -31.47734 | 36971 ft | 532 kts | 96° |
| 2026-04-25 20:03 | 48.05131 | -31.36665 | 36976 ft | 531 kts | 96° |
| 2026-04-25 20:03 | 48.04778 | -31.25674 | 36985 ft | 532 kts | 96° |
| 2026-04-25 20:04 | 48.04415 | -31.14645 | 36988 ft | 531 kts | 96° |
| 2026-04-25 20:04 | 48.04040 | -31.03618 | 36985 ft | 531 kts | 96° |
| 2026-04-25 20:05 | 48.03654 | -30.92583 | 37002 ft | 532 kts | 96° |
| 2026-04-25 20:05 | 48.03258 | -30.81541 | 36997 ft | 531 kts | 96° |
| 2026-04-25 20:06 | 48.02854 | -30.70594 | 37006 ft | 531 kts | 96° |
| 2026-04-25 20:06 | 48.02437 | -30.59568 | 37005 ft | 531 kts | 96° |
| 2026-04-25 20:07 | 48.02011 | -30.48556 | 37014 ft | 531 kts | 96° |
| 2026-04-25 20:07 | 48.01573 | -30.37545 | 37022 ft | 531 kts | 96° |
| 2026-04-25 20:08 | 48.01124 | -30.26526 | 37025 ft | 530 kts | 96° |
| 2026-04-25 20:08 | 48.00665 | -30.15516 | 37031 ft | 531 kts | 96° |
| 2026-04-25 20:09 | 48.00196 | -30.04486 | 37034 ft | 532 kts | 96° |
| 2026-04-25 20:09 | 48.00280 | -29.93503 | 37053 ft | 535 kts | 89° |
| 2026-04-25 20:10 | 48.00755 | -29.82401 | 37057 ft | 535 kts | 89° |
| 2026-04-25 20:10 | 48.01214 | -29.71277 | 37067 ft | 536 kts | 89° |
| 2026-04-25 20:11 | 48.01666 | -29.60161 | 37069 ft | 536 kts | 89° |
| 2026-04-25 20:11 | 48.02104 | -29.49042 | 37070 ft | 536 kts | 89° |
| 2026-04-25 20:12 | 48.02531 | -29.37987 | 37066 ft | 535 kts | 89° |
| 2026-04-25 20:12 | 48.02879 | -29.28763 | 37063 ft | 534 kts | 89° |
| 2026-04-25 20:13 | 48.03354 | -29.15818 | 37060 ft | 534 kts | 89° |
| 2026-04-25 20:13 | 48.03750 | -29.04725 | 37065 ft | 534 kts | 89° |
| 2026-04-25 20:14 | 48.04134 | -28.93634 | 37066 ft | 534 kts | 89° |
| 2026-04-25 20:14 | 48.04506 | -28.82608 | 37070 ft | 535 kts | 89° |
| 2026-04-25 20:15 | 48.04870 | -28.71493 | 37081 ft | 535 kts | 89° |
| 2026-04-25 20:15 | 48.05224 | -28.60370 | 37080 ft | 536 kts | 89° |
| 2026-04-25 20:16 | 48.05567 | -28.49236 | 37078 ft | 536 kts | 89° |
| 2026-04-25 20:16 | 48.05898 | -28.38168 | 37080 ft | 535 kts | 89° |
| 2026-04-25 20:17 | 48.06219 | -28.27038 | 37092 ft | 535 kts | 89° |
| 2026-04-25 20:17 | 48.06529 | -28.15945 | 37090 ft | 536 kts | 89° |
| 2026-04-25 20:18 | 48.06830 | -28.04786 | 37089 ft | 535 kts | 89° |
| 2026-04-25 20:18 | 48.07120 | -27.93633 | 37094 ft | 535 kts | 89° |
| 2026-04-25 20:19 | 48.07396 | -27.82591 | 37090 ft | 535 kts | 89° |
| 2026-04-25 20:19 | 48.07663 | -27.71471 | 37092 ft | 535 kts | 89° |
| 2026-04-25 20:20 | 48.07920 | -27.60351 | 37100 ft | 535 kts | 89° |
| 2026-04-25 20:20 | 48.08167 | -27.49206 | 37100 ft | 535 kts | 89° |
| 2026-04-25 20:21 | 48.08402 | -27.38071 | 37096 ft | 535 kts | 89° |
| 2026-04-25 20:21 | 48.08627 | -27.26934 | 37100 ft | 535 kts | 89° |
| 2026-04-25 20:22 | 48.08770 | -27.19564 | 37103 ft | 534 kts | 89° |
| 2026-04-25 20:22 | 48.09043 | -27.04709 | 37107 ft | 533 kts | 89° |
| 2026-04-25 20:23 | 48.09234 | -26.93685 | 37108 ft | 533 kts | 89° |
| 2026-04-25 20:23 | 48.09415 | -26.82614 | 37111 ft | 532 kts | 89° |
| 2026-04-25 20:24 | 48.09585 | -26.71548 | 37113 ft | 532 kts | 89° |
| 2026-04-25 20:24 | 48.09744 | -26.60476 | 37117 ft | 532 kts | 89° |
| 2026-04-25 20:25 | 48.09893 | -26.49409 | 37120 ft | 531 kts | 89° |
| 2026-04-25 20:25 | 48.10030 | -26.38433 | 37120 ft | 530 kts | 89° |
| 2026-04-25 20:26 | 48.10158 | -26.27394 | 37121 ft | 530 kts | 89° |
| 2026-04-25 20:26 | 48.10274 | -26.16373 | 37120 ft | 530 kts | 89° |
| 2026-04-25 20:27 | 48.10380 | -26.05349 | 37123 ft | 529 kts | 89° |
| 2026-04-25 20:27 | 48.10476 | -25.94306 | 37122 ft | 529 kts | 89° |
| 2026-04-25 20:28 | 48.10560 | -25.83294 | 37121 ft | 529 kts | 89° |
| 2026-04-25 20:28 | 48.10634 | -25.72352 | 37122 ft | 529 kts | 89° |
| 2026-04-25 20:29 | 48.10698 | -25.61328 | 37124 ft | 529 kts | 89° |
| 2026-04-25 20:29 | 48.10752 | -25.50311 | 37125 ft | 529 kts | 89° |
| 2026-04-25 20:30 | 48.10795 | -25.39286 | 37124 ft | 530 kts | 89° |
| 2026-04-25 20:30 | 48.10827 | -25.28257 | 37122 ft | 529 kts | 90° |
| 2026-04-25 20:31 | 48.10849 | -25.17240 | 37124 ft | 529 kts | 90° |
| 2026-04-25 20:31 | 48.10860 | -25.06288 | 37125 ft | 529 kts | 90° |
| 2026-04-25 20:32 | 48.10860 | -24.95290 | 37122 ft | 529 kts | 90° |
| 2026-04-25 20:32 | 48.10851 | -24.84268 | 37123 ft | 529 kts | 90° |
| 2026-04-25 20:33 | 48.10830 | -24.73261 | 37124 ft | 528 kts | 90° |
| 2026-04-25 20:33 | 48.10811 | -24.65904 | 37122 ft | 528 kts | 90° |
| 2026-04-25 20:34 | 48.10758 | -24.51262 | 37120 ft | 528 kts | 90° |
| 2026-04-25 20:34 | 48.10707 | -24.40331 | 37122 ft | 528 kts | 90° |
| 2026-04-25 20:35 | 48.10645 | -24.29333 | 37123 ft | 529 kts | 90° |
| 2026-04-25 20:35 | 48.10572 | -24.18326 | 37125 ft | 528 kts | 90° |
| 2026-04-25 20:36 | 48.10489 | -24.07331 | 37127 ft | 528 kts | 90° |
| 2026-04-25 20:36 | 48.10395 | -23.96337 | 37128 ft | 528 kts | 90° |
| 2026-04-25 20:37 | 48.10291 | -23.85361 | 37128 ft | 528 kts | 90° |
| 2026-04-25 20:37 | 48.10177 | -23.74358 | 37127 ft | 528 kts | 90° |
| 2026-04-25 20:38 | 48.10052 | -23.63387 | 37127 ft | 527 kts | 90° |
| 2026-04-25 20:38 | 48.09917 | -23.52502 | 37125 ft | 528 kts | 90° |
| 2026-04-25 20:39 | 48.09771 | -23.41489 | 37133 ft | 530 kts | 91° |
| 2026-04-25 20:39 | 48.09667 | -23.34114 | 37128 ft | 530 kts | 91° |
| 2026-04-25 20:40 | 48.09447 | -23.19445 | 37133 ft | 529 kts | 91° |
| 2026-04-25 20:40 | 48.09269 | -23.08435 | 37131 ft | 529 kts | 91° |
| 2026-04-25 20:41 | 48.09082 | -22.97488 | 37131 ft | 529 kts | 91° |
| 2026-04-25 20:41 | 48.08883 | -22.86476 | 37133 ft | 529 kts | 91° |
| 2026-04-25 20:42 | 48.08673 | -22.75455 | 37130 ft | 529 kts | 91° |
| 2026-04-25 20:42 | 48.08454 | -22.64447 | 37130 ft | 529 kts | 91° |
| 2026-04-25 20:43 | 48.08223 | -22.53440 | 37133 ft | 530 kts | 91° |
| 2026-04-25 20:43 | 48.08024 | -22.44286 | 37128 ft | 529 kts | 91° |
| 2026-04-25 20:44 | 48.07733 | -22.31494 | 37129 ft | 528 kts | 91° |
| 2026-04-25 20:44 | 48.07514 | -22.22282 | 37129 ft | 529 kts | 91° |
| 2026-04-25 20:45 | 48.07244 | -22.11286 | 37128 ft | 529 kts | 91° |
| 2026-04-25 20:45 | 48.06964 | -22.00355 | 37130 ft | 530 kts | 91° |
| 2026-04-25 20:46 | 48.06671 | -21.89271 | 37125 ft | 530 kts | 91° |
| 2026-04-25 20:46 | 48.06380 | -21.78668 | 37126 ft | 530 kts | 91° |
| 2026-04-25 20:47 | 48.06062 | -21.67482 | 37125 ft | 529 kts | 91° |
| 2026-04-25 20:47 | 48.05739 | -21.56498 | 37125 ft | 529 kts | 92° |
| 2026-04-25 20:48 | 48.05406 | -21.45491 | 37121 ft | 529 kts | 92° |
| 2026-04-25 20:48 | 48.05061 | -21.34491 | 37126 ft | 529 kts | 92° |
| 2026-04-25 20:49 | 48.04707 | -21.23510 | 37125 ft | 528 kts | 92° |
| 2026-04-25 20:49 | 48.04346 | -21.12626 | 37127 ft | 527 kts | 92° |
| 2026-04-25 20:50 | 48.03973 | -21.01674 | 37124 ft | 527 kts | 92° |
| 2026-04-25 20:50 | 48.03589 | -20.90752 | 37123 ft | 526 kts | 92° |
| 2026-04-25 20:51 | 48.03196 | -20.79841 | 37123 ft | 525 kts | 92° |
| 2026-04-25 20:51 | 48.02792 | -20.68943 | 37124 ft | 525 kts | 93° |
| 2026-04-25 20:52 | 48.02449 | -20.59881 | 37119 ft | 525 kts | 93° |
| 2026-04-25 20:52 | 48.01955 | -20.47145 | 37122 ft | 524 kts | 93° |
| 2026-04-25 20:53 | 48.01524 | -20.36336 | 37122 ft | 525 kts | 93° |
| 2026-04-25 20:53 | 48.01081 | -20.25468 | 37123 ft | 524 kts | 94° |
| 2026-04-25 20:54 | 48.00627 | -20.14597 | 37117 ft | 524 kts | 94° |
| 2026-04-25 20:54 | 48.00163 | -20.03730 | 37117 ft | 524 kts | 94° |
| 2026-04-25 20:55 | 48.00138 | -19.92869 | 37121 ft | 524 kts | 88° |
| 2026-04-25 20:55 | 48.00388 | -19.81989 | 37123 ft | 524 kts | 88° |
| 2026-04-25 20:56 | 48.00586 | -19.71119 | 36735 ft | 524 kts | 88° |
| 2026-04-25 20:56 | 48.00694 | -19.65672 | 36294 ft | 525 kts | 88° |
| 2026-04-25 20:56 | 48.00799 | -19.60234 | 36126 ft | 520 kts | 89° |
| 2026-04-25 20:57 | 48.00985 | -19.49528 | 36125 ft | 522 kts | 89° |
| 2026-04-25 20:57 | 48.01171 | -19.38637 | 36123 ft | 526 kts | 89° |
| 2026-04-25 20:58 | 48.01343 | -19.27704 | 36125 ft | 526 kts | 89° |
| 2026-04-25 20:58 | 48.01507 | -19.16774 | 36125 ft | 526 kts | 89° |
| 2026-04-25 20:59 | 48.01660 | -19.05847 | 36131 ft | 526 kts | 89° |
| 2026-04-25 20:59 | 48.01803 | -18.94914 | 36131 ft | 526 kts | 90° |
| 2026-04-25 21:00 | 48.01892 | -18.87693 | 36131 ft | 526 kts | 90° |
| 2026-04-25 21:01 | 48.02114 | -18.67616 | 36137 ft | 526 kts | 90° |
| 2026-04-25 21:01 | 48.02220 | -18.56695 | 36134 ft | 526 kts | 90° |
| 2026-04-25 21:02 | 48.02316 | -18.45822 | 36132 ft | 525 kts | 90° |
| 2026-04-25 21:02 | 48.02402 | -18.34896 | 36136 ft | 526 kts | 90° |
| 2026-04-25 21:03 | 48.02477 | -18.23979 | 36132 ft | 526 kts | 90° |
| 2026-04-25 21:03 | 48.02542 | -18.13066 | 36134 ft | 525 kts | 91° |
| 2026-04-25 21:04 | 48.02596 | -18.02139 | 36133 ft | 525 kts | 91° |
| 2026-04-25 21:04 | 48.02641 | -17.91203 | 36137 ft | 526 kts | 91° |
| 2026-04-25 21:05 | 48.02675 | -17.80346 | 36142 ft | 525 kts | 91° |
| 2026-04-25 21:05 | 48.02698 | -17.69449 | 36147 ft | 525 kts | 91° |
| 2026-04-25 21:06 | 48.02711 | -17.58549 | 36153 ft | 524 kts | 91° |
| 2026-04-25 21:06 | 48.02714 | -17.47784 | 36154 ft | 525 kts | 92° |
| 2026-04-25 21:07 | 48.02707 | -17.36878 | 36154 ft | 524 kts | 92° |
| 2026-04-25 21:07 | 48.02689 | -17.25985 | 36156 ft | 524 kts | 92° |
| 2026-04-25 21:08 | 48.02661 | -17.15097 | 36162 ft | 525 kts | 92° |
| 2026-04-25 21:08 | 48.02623 | -17.04183 | 36164 ft | 524 kts | 92° |
| 2026-04-25 21:09 | 48.02547 | -16.87834 | 36167 ft | 525 kts | 93° |
| 2026-04-25 21:09 | 48.02483 | -16.76917 | 36170 ft | 525 kts | 93° |
| 2026-04-25 21:10 | 48.02408 | -16.65994 | 36171 ft | 525 kts | 93° |
| 2026-04-25 21:10 | 48.02323 | -16.55076 | 36172 ft | 525 kts | 93° |
| 2026-04-25 21:11 | 48.02228 | -16.44141 | 36175 ft | 526 kts | 94° |
| 2026-04-25 21:11 | 48.02123 | -16.33287 | 36180 ft | 526 kts | 94° |
| 2026-04-25 21:12 | 48.02007 | -16.22376 | 36194 ft | 526 kts | 94° |
| 2026-04-25 21:12 | 48.01903 | -16.13217 | 36190 ft | 526 kts | 94° |
| 2026-04-25 21:13 | 48.01745 | -16.00546 | 36495 ft | 520 kts | 94° |
| 2026-04-25 21:13 | 48.01674 | -15.95135 | 36684 ft | 519 kts | 94° |
| 2026-04-25 21:13 | 48.01600 | -15.89743 | 36837 ft | 520 kts | 94° |
| 2026-04-25 21:14 | 48.01524 | -15.84376 | 37220 ft | 515 kts | 94° |
| 2026-04-25 21:14 | 48.01447 | -15.79045 | 37654 ft | 509 kts | 94° |
| 2026-04-25 21:14 | 48.01369 | -15.73808 | 38228 ft | 502 kts | 94° |
| 2026-04-25 21:14 | 48.01286 | -15.68569 | 38203 ft | 507 kts | 94° |
| 2026-04-25 21:15 | 48.01113 | -15.57963 | 38195 ft | 515 kts | 94° |
| 2026-04-25 21:15 | 48.00929 | -15.47202 | 38205 ft | 521 kts | 94° |
| 2026-04-25 21:16 | 48.00732 | -15.36330 | 38212 ft | 525 kts | 94° |
| 2026-04-25 21:16 | 48.00526 | -15.25439 | 38217 ft | 524 kts | 94° |
| 2026-04-25 21:17 | 48.00309 | -15.14616 | 38217 ft | 524 kts | 95° |
| 2026-04-25 21:17 | 48.00083 | -15.03741 | 38212 ft | 524 kts | 95° |
| 2026-04-25 21:18 | 47.99605 | -14.92918 | 38222 ft | 522 kts | 97° |
| 2026-04-25 21:18 | 47.99066 | -14.82102 | 38214 ft | 521 kts | 98° |
| 2026-04-25 21:19 | 47.98459 | -14.71316 | 38212 ft | 521 kts | 98° |
| 2026-04-25 21:19 | 47.97874 | -14.60517 | 38215 ft | 522 kts | 98° |
| 2026-04-25 21:20 | 47.97471 | -14.53372 | 38219 ft | 521 kts | 98° |
| 2026-04-25 21:20 | 47.96654 | -14.39032 | 38215 ft | 521 kts | 98° |
| 2026-04-25 21:21 | 47.96027 | -14.28257 | 38220 ft | 520 kts | 98° |
| 2026-04-25 21:21 | 47.95392 | -14.17498 | 38223 ft | 521 kts | 98° |
| 2026-04-25 21:22 | 47.94747 | -14.06738 | 38222 ft | 521 kts | 98° |
| 2026-04-25 21:22 | 47.94090 | -13.95970 | 38224 ft | 521 kts | 98° |
| 2026-04-25 21:23 | 47.93425 | -13.85212 | 38226 ft | 521 kts | 98° |
| 2026-04-25 21:23 | 47.92748 | -13.74451 | 38223 ft | 522 kts | 99° |
| 2026-04-25 21:24 | 47.92061 | -13.63662 | 38224 ft | 522 kts | 99° |
| 2026-04-25 21:24 | 47.91363 | -13.52888 | 38229 ft | 522 kts | 99° |
| 2026-04-25 21:25 | 47.90655 | -13.42107 | 38231 ft | 522 kts | 99° |
| 2026-04-25 21:25 | 47.89937 | -13.31331 | 38234 ft | 522 kts | 99° |
| 2026-04-25 21:26 | 47.89333 | -13.22385 | 38229 ft | 522 kts | 99° |
| 2026-04-25 21:26 | 47.88596 | -13.11617 | 38234 ft | 522 kts | 99° |
| 2026-04-25 21:27 | 47.87730 | -12.99130 | 38235 ft | 521 kts | 99° |
| 2026-04-25 21:27 | 47.86973 | -12.88391 | 38232 ft | 522 kts | 99° |
| 2026-04-25 21:28 | 47.86330 | -12.79384 | 38234 ft | 521 kts | 99° |
| 2026-04-25 21:28 | 47.85561 | -12.68724 | 38234 ft | 521 kts | 99° |
| 2026-04-25 21:29 | 47.84775 | -12.57981 | 38245 ft | 521 kts | 99° |
| 2026-04-25 21:29 | 47.83979 | -12.47243 | 38240 ft | 522 kts | 99° |
| 2026-04-25 21:30 | 47.83173 | -12.36503 | 38234 ft | 522 kts | 99° |
| 2026-04-25 21:30 | 47.82495 | -12.27572 | 38234 ft | 521 kts | 99° |
| 2026-04-25 21:31 | 47.81532 | -12.15048 | 38245 ft | 522 kts | 99° |
| 2026-04-25 21:31 | 47.80697 | -12.04333 | 38241 ft | 521 kts | 99° |
| 2026-04-25 21:32 | 47.79851 | -11.93607 | 38243 ft | 521 kts | 99° |
| 2026-04-25 21:32 | 47.78996 | -11.82904 | 38244 ft | 521 kts | 99° |
| 2026-04-25 21:33 | 47.78138 | -11.72282 | 38241 ft | 521 kts | 99° |
| 2026-04-25 21:33 | 47.77262 | -11.61567 | 38242 ft | 520 kts | 99° |
| 2026-04-25 21:34 | 47.76379 | -11.50882 | 38241 ft | 520 kts | 99° |
| 2026-04-25 21:34 | 47.75486 | -11.40214 | 38241 ft | 520 kts | 99° |
| 2026-04-25 21:35 | 47.74584 | -11.29556 | 38243 ft | 519 kts | 100° |
| 2026-04-25 21:35 | 47.73672 | -11.18904 | 38260 ft | 519 kts | 100° |
| 2026-04-25 21:36 | 47.72752 | -11.08261 | 38247 ft | 519 kts | 100° |
| 2026-04-25 21:36 | 47.71826 | -10.97687 | 38241 ft | 519 kts | 100° |
| 2026-04-25 21:37 | 47.71045 | -10.88838 | 38241 ft | 520 kts | 100° |
| 2026-04-25 21:37 | 47.69932 | -10.76374 | 38242 ft | 520 kts | 100° |
| 2026-04-25 21:38 | 47.68970 | -10.65728 | 38242 ft | 520 kts | 100° |
| 2026-04-25 21:38 | 47.67999 | -10.55091 | 38241 ft | 520 kts | 100° |
| 2026-04-25 21:39 | 47.67016 | -10.44444 | 38243 ft | 521 kts | 100° |
| 2026-04-25 21:39 | 47.66024 | -10.33798 | 38247 ft | 521 kts | 100° |
| 2026-04-25 21:40 | 47.65021 | -10.23154 | 38242 ft | 522 kts | 100° |
| 2026-04-25 21:40 | 47.64007 | -10.12498 | 38244 ft | 522 kts | 100° |
| 2026-04-25 21:41 | 47.62989 | -10.01895 | 38245 ft | 522 kts | 101° |
| 2026-04-25 21:41 | 47.61954 | -9.91242 | 38244 ft | 522 kts | 101° |
| 2026-04-25 21:42 | 47.60911 | -9.80598 | 38241 ft | 522 kts | 101° |
| 2026-04-25 21:42 | 47.59856 | -9.69943 | 38246 ft | 521 kts | 101° |
| 2026-04-25 21:43 | 47.58794 | -9.59315 | 38245 ft | 522 kts | 101° |
| 2026-04-25 21:43 | 47.57720 | -9.48677 | 38244 ft | 521 kts | 101° |
| 2026-04-25 21:44 | 47.56638 | -9.38059 | 38243 ft | 521 kts | 101° |
| 2026-04-25 21:45 | 47.55001 | -9.22175 | 38241 ft | 522 kts | 101° |
| 2026-04-25 21:45 | 47.53893 | -9.11557 | 38251 ft | 521 kts | 101° |
| 2026-04-25 21:46 | 47.52778 | -9.00962 | 38255 ft | 521 kts | 101° |
| 2026-04-25 21:46 | 47.51654 | -8.90384 | 38246 ft | 521 kts | 101° |
| 2026-04-25 21:47 | 47.50519 | -8.79797 | 38236 ft | 520 kts | 101° |
| 2026-04-25 21:47 | 47.50013 | -8.69133 | 38242 ft | 523 kts | 91° |
| 2026-04-25 21:48 | 47.50046 | -8.58429 | 38244 ft | 524 kts | 91° |
| 2026-04-25 21:48 | 47.50057 | -8.47649 | 38246 ft | 524 kts | 91° |
| 2026-04-25 21:49 | 47.50063 | -8.36841 | 38255 ft | 524 kts | 91° |
| 2026-04-25 21:49 | 47.50057 | -8.26052 | 38245 ft | 525 kts | 91° |
| 2026-04-25 21:50 | 47.50041 | -8.15255 | 38248 ft | 525 kts | 91° |
| 2026-04-25 21:50 | 47.50015 | -8.04428 | 38236 ft | 526 kts | 91° |
| 2026-04-25 21:51 | 47.49997 | -7.93599 | 38244 ft | 527 kts | 91° |
| 2026-04-25 21:51 | 47.50032 | -7.82766 | 38227 ft | 525 kts | 91° |
| 2026-04-25 21:52 | 47.50016 | -7.72031 | 38235 ft | 526 kts | 91° |
| 2026-04-25 21:52 | 47.50015 | -7.61204 | 38239 ft | 526 kts | 91° |
| 2026-04-25 21:53 | 47.49990 | -7.50378 | 38236 ft | 526 kts | 91° |
| 2026-04-25 21:53 | 47.49962 | -7.39547 | 38233 ft | 526 kts | 91° |
| 2026-04-25 21:54 | 47.49920 | -7.28719 | 38231 ft | 526 kts | 91° |
| 2026-04-25 21:54 | 47.49870 | -7.17912 | 38231 ft | 525 kts | 91° |
| 2026-04-25 21:55 | 47.49808 | -7.07093 | 38228 ft | 524 kts | 91° |
| 2026-04-25 21:55 | 47.49738 | -6.96377 | 38226 ft | 524 kts | 91° |
| 2026-04-25 21:56 | 47.49657 | -6.85587 | 38228 ft | 524 kts | 91° |
| 2026-04-25 21:56 | 47.49566 | -6.74825 | 38235 ft | 523 kts | 91° |
| 2026-04-25 21:57 | 47.49464 | -6.64062 | 38230 ft | 522 kts | 91° |
| 2026-04-25 21:57 | 47.49355 | -6.53466 | 38229 ft | 522 kts | 91° |
| 2026-04-25 21:58 | 47.49235 | -6.42754 | 38230 ft | 521 kts | 91° |
| 2026-04-25 21:58 | 47.49106 | -6.32176 | 38233 ft | 505 kts | 91° |
| 2026-04-25 21:59 | 47.48969 | -6.21743 | 38228 ft | 510 kts | 91° |
| 2026-04-25 21:59 | 47.48822 | -6.11245 | 38232 ft | 517 kts | 91° |
| 2026-04-25 22:00 | 47.48579 | -5.95166 | 38237 ft | 523 kts | 91° |
| 2026-04-25 22:00 | 47.48403 | -5.84403 | 38234 ft | 524 kts | 91° |
| 2026-04-25 22:01 | 47.48217 | -5.73629 | 38232 ft | 525 kts | 91° |
| 2026-04-25 22:01 | 47.48054 | -5.64654 | 38231 ft | 525 kts | 91° |
| 2026-04-25 22:02 | 47.47814 | -5.52019 | 38230 ft | 525 kts | 91° |
| 2026-04-25 22:02 | 47.47598 | -5.41294 | 38229 ft | 524 kts | 91° |
| 2026-04-25 22:03 | 47.47372 | -5.30537 | 38226 ft | 523 kts | 91° |
| 2026-04-25 22:03 | 47.47138 | -5.19850 | 38222 ft | 522 kts | 91° |
| 2026-04-25 22:04 | 47.46892 | -5.09117 | 38218 ft | 522 kts | 91° |
| 2026-04-25 22:04 | 47.46637 | -4.98379 | 38222 ft | 523 kts | 91° |
| 2026-04-25 22:05 | 47.46373 | -4.87721 | 38207 ft | 523 kts | 91° |
| 2026-04-25 22:05 | 47.46096 | -4.76963 | 38208 ft | 523 kts | 91° |
| 2026-04-25 22:06 | 47.45811 | -4.66219 | 38209 ft | 522 kts | 91° |
| 2026-04-25 22:06 | 47.45515 | -4.55494 | 38202 ft | 522 kts | 91° |
| 2026-04-25 22:07 | 47.45263 | -4.46632 | 38198 ft | 520 kts | 91° |
| 2026-04-25 22:07 | 47.44896 | -4.34110 | 38198 ft | 519 kts | 91° |
| 2026-04-25 22:08 | 47.44573 | -4.23464 | 38192 ft | 518 kts | 91° |
| 2026-04-25 22:08 | 47.44240 | -4.12841 | 38186 ft | 517 kts | 91° |
| 2026-04-25 22:09 | 47.43957 | -4.04028 | 38186 ft | 516 kts | 91° |
| 2026-04-25 22:09 | 47.43550 | -3.91715 | 38188 ft | 517 kts | 91° |
| 2026-04-25 22:10 | 47.43248 | -3.82826 | 38185 ft | 517 kts | 91° |
| 2026-04-25 22:10 | 47.42879 | -3.72232 | 38179 ft | 517 kts | 91° |
| 2026-04-25 22:11 | 47.42499 | -3.61601 | 38180 ft | 517 kts | 92° |
| 2026-04-25 22:11 | 47.42112 | -3.51055 | 38178 ft | 517 kts | 92° |
| 2026-04-25 22:12 | 47.41714 | -3.40468 | 38179 ft | 516 kts | 92° |
| 2026-04-25 22:12 | 47.41375 | -3.31658 | 38181 ft | 517 kts | 92° |
| 2026-04-25 22:13 | 47.40887 | -3.19258 | 38182 ft | 517 kts | 92° |
| 2026-04-25 22:13 | 47.40784 | -3.08701 | 38205 ft | 514 kts | 82° |
| 2026-04-25 22:14 | 47.41499 | -2.98174 | 38189 ft | 516 kts | 83° |
| 2026-04-25 22:14 | 47.42191 | -2.87688 | 38197 ft | 516 kts | 83° |
| 2026-04-25 22:15 | 47.42880 | -2.77141 | 38189 ft | 516 kts | 83° |
| 2026-04-25 22:16 | 47.43893 | -2.61313 | 38191 ft | 516 kts | 83° |
| 2026-04-25 22:16 | 47.44557 | -2.50778 | 38191 ft | 515 kts | 83° |
| 2026-04-25 22:17 | 47.45209 | -2.40248 | 38192 ft | 515 kts | 83° |
| 2026-04-25 22:17 | 47.45854 | -2.29688 | 38191 ft | 515 kts | 83° |
| 2026-04-25 22:18 | 47.46487 | -2.19157 | 38189 ft | 515 kts | 83° |
| 2026-04-25 22:18 | 47.47111 | -2.08612 | 38191 ft | 515 kts | 83° |
| 2026-04-25 22:19 | 47.47726 | -1.98058 | 38198 ft | 515 kts | 83° |
| 2026-04-25 22:19 | 47.48327 | -1.87577 | 38186 ft | 516 kts | 84° |
| 2026-04-25 22:20 | 47.49888 | -1.77382 | 38211 ft | 510 kts | 64° |
| 2026-04-25 22:20 | 47.53124 | -1.68177 | 38182 ft | 502 kts | 57° |
| 2026-04-25 22:21 | 47.56462 | -1.59029 | 38193 ft | 503 kts | 63° |
| 2026-04-25 22:21 | 47.59567 | -1.49752 | 38186 ft | 507 kts | 60° |
| 2026-04-25 22:22 | 47.62837 | -1.40406 | 38193 ft | 512 kts | 62° |
| 2026-04-25 22:22 | 47.66012 | -1.30946 | 38194 ft | 512 kts | 61° |
| 2026-04-25 22:23 | 47.69195 | -1.21671 | 38151 ft | 495 kts | 62° |
| 2026-04-25 22:23 | 47.70726 | -1.17115 | 37906 ft | 492 kts | 62° |
| 2026-04-25 22:23 | 47.72259 | -1.12566 | 37458 ft | 492 kts | 61° |
| 2026-04-25 22:23 | 47.73800 | -1.08026 | 37052 ft | 492 kts | 61° |
| 2026-04-25 22:24 | 47.75336 | -1.03482 | 36664 ft | 491 kts | 61° |
| 2026-04-25 22:24 | 47.76863 | -0.98933 | 36241 ft | 491 kts | 61° |
| 2026-04-25 22:24 | 47.78390 | -0.94378 | 35844 ft | 491 kts | 61° |
| 2026-04-25 22:24 | 47.79917 | -0.89830 | 35429 ft | 491 kts | 61° |
| 2026-04-25 22:25 | 47.81441 | -0.85284 | 35026 ft | 491 kts | 61° |
| 2026-04-25 22:25 | 47.82945 | -0.80779 | 34629 ft | 491 kts | 61° |
| 2026-04-25 22:25 | 47.84463 | -0.76225 | 34220 ft | 491 kts | 61° |
| 2026-04-25 22:25 | 47.85980 | -0.71669 | 33731 ft | 492 kts | 61° |
| 2026-04-25 22:26 | 47.87501 | -0.67097 | 33186 ft | 493 kts | 62° |
| 2026-04-25 22:26 | 47.89023 | -0.62510 | 32626 ft | 494 kts | 62° |
| 2026-04-25 22:26 | 47.90546 | -0.57910 | 32081 ft | 494 kts | 62° |
| 2026-04-25 22:26 | 47.92062 | -0.53322 | 31084 ft | 494 kts | 62° |
| 2026-04-25 22:27 | 47.93581 | -0.48722 | 30338 ft | 492 kts | 62° |
| 2026-04-25 22:27 | 47.95067 | -0.44203 | 30192 ft | 477 kts | 62° |
| 2026-04-25 22:27 | 47.96526 | -0.39766 | 30196 ft | 478 kts | 62° |
| 2026-04-25 22:28 | 47.99501 | -0.30706 | 30202 ft | 491 kts | 62° |
| 2026-04-25 22:28 | 48.02503 | -0.21512 | 30191 ft | 493 kts | 62° |
| 2026-04-25 22:29 | 48.05492 | -0.12336 | 30196 ft | 493 kts | 63° |
| 2026-04-25 22:29 | 48.08455 | -0.03223 | 30171 ft | 471 kts | 62° |
| 2026-04-25 22:30 | 48.11199 | 0.05266 | 30177 ft | 435 kts | 62° |
| 2026-04-25 22:30 | 48.12490 | 0.09276 | 30172 ft | 419 kts | 62° |
| 2026-04-25 22:30 | 48.13735 | 0.13139 | 30172 ft | 406 kts | 62° |
| 2026-04-25 22:30 | 48.14543 | 0.15645 | 30126 ft | 400 kts | 62° |
| 2026-04-25 22:31 | 48.16197 | 0.20783 | 28121 ft | 426 kts | 62° |
| 2026-04-25 22:31 | 48.17477 | 0.24782 | 27676 ft | 422 kts | 63° |
| 2026-04-25 22:31 | 48.18738 | 0.28735 | 27087 ft | 419 kts | 63° |
| 2026-04-25 22:31 | 48.19992 | 0.32659 | 26572 ft | 415 kts | 63° |
| 2026-04-25 22:32 | 48.21221 | 0.36507 | 26029 ft | 412 kts | 63° |
| 2026-04-25 22:32 | 48.22451 | 0.40368 | 25522 ft | 409 kts | 63° |
| 2026-04-25 22:32 | 48.23669 | 0.44201 | 25064 ft | 405 kts | 63° |
| 2026-04-25 22:32 | 48.24751 | 0.48063 | 24537 ft | 404 kts | 75° |
| 2026-04-25 22:33 | 48.25116 | 0.52232 | 24320 ft | 395 kts | 86° |
| 2026-04-25 22:33 | 48.25153 | 0.56272 | 24272 ft | 380 kts | 89° |
| 2026-04-25 22:33 | 48.25077 | 0.60150 | 24152 ft | 361 kts | 90° |
| 2026-04-25 22:33 | 48.24965 | 0.63930 | 23084 ft | 368 kts | 91° |
| 2026-04-25 22:34 | 48.24839 | 0.67701 | 22823 ft | 359 kts | 91° |
| 2026-04-25 22:34 | 48.24710 | 0.71441 | 22361 ft | 357 kts | 91° |
| 2026-04-25 22:34 | 48.24584 | 0.75097 | 21915 ft | 354 kts | 91° |
| 2026-04-25 22:34 | 48.24459 | 0.78775 | 21480 ft | 352 kts | 91° |
| 2026-04-25 22:35 | 48.24624 | 0.82435 | 21005 ft | 345 kts | 70° |
| 2026-04-25 22:35 | 48.25725 | 0.85556 | 20586 ft | 338 kts | 49° |
| 2026-04-25 22:35 | 48.27310 | 0.88091 | 20082 ft | 336 kts | 43° |
| 2026-04-25 22:35 | 48.28978 | 0.90538 | 19656 ft | 334 kts | 44° |
| 2026-04-25 22:36 | 48.30495 | 0.93171 | 19206 ft | 333 kts | 52° |
| 2026-04-25 22:36 | 48.31793 | 0.96061 | 18771 ft | 332 kts | 56° |
| 2026-04-25 22:36 | 48.33058 | 0.98962 | 18323 ft | 330 kts | 54° |
| 2026-04-25 22:36 | 48.34395 | 1.01752 | 17839 ft | 327 kts | 52° |
| 2026-04-25 22:37 | 48.35744 | 1.04502 | 17373 ft | 325 kts | 53° |
| 2026-04-25 22:37 | 48.37046 | 1.07261 | 16905 ft | 323 kts | 54° |
| 2026-04-25 22:37 | 48.38336 | 1.10014 | 16454 ft | 321 kts | 53° |
| 2026-04-25 22:37 | 48.39569 | 1.12799 | 15977 ft | 319 kts | 60° |
| 2026-04-25 22:38 | 48.40650 | 1.15711 | 15499 ft | 317 kts | 55° |
| 2026-04-25 22:38 | 48.41968 | 1.18339 | 15052 ft | 314 kts | 50° |
| 2026-04-25 22:38 | 48.43326 | 1.20854 | 14603 ft | 312 kts | 51° |
| 2026-04-25 22:38 | 48.44609 | 1.23483 | 14167 ft | 310 kts | 54° |
| 2026-04-25 22:39 | 48.45832 | 1.26151 | 13713 ft | 308 kts | 54° |
| 2026-04-25 22:39 | 48.47068 | 1.28777 | 13256 ft | 305 kts | 53° |
| 2026-04-25 22:39 | 48.48310 | 1.31355 | 12793 ft | 302 kts | 53° |
| 2026-04-25 22:39 | 48.49536 | 1.33914 | 12341 ft | 300 kts | 53° |
| 2026-04-25 22:40 | 48.50746 | 1.36465 | 11905 ft | 297 kts | 53° |
| 2026-04-25 22:40 | 48.51947 | 1.39001 | 11451 ft | 295 kts | 53° |
| 2026-04-25 22:40 | 48.53134 | 1.41501 | 11216 ft | 287 kts | 53° |
| 2026-04-25 22:40 | 48.54278 | 1.43912 | 11215 ft | 289 kts | 53° |
| 2026-04-25 22:41 | 48.55474 | 1.46432 | 11220 ft | 293 kts | 53° |
| 2026-04-25 22:41 | 48.56660 | 1.48936 | 11225 ft | 293 kts | 52° |
| 2026-04-25 22:41 | 48.58129 | 1.51027 | 11225 ft | 291 kts | 29° |
| 2026-04-25 22:41 | 48.59915 | 1.52439 | 11224 ft | 292 kts | 26° |
| 2026-04-25 22:42 | 48.61758 | 1.53773 | 11206 ft | 290 kts | 25° |
| 2026-04-25 22:42 | 48.63582 | 1.55081 | 10878 ft | 291 kts | 25° |
| 2026-04-25 22:42 | 48.65306 | 1.56666 | 10604 ft | 290 kts | 37° |
| 2026-04-25 22:42 | 48.66853 | 1.58613 | 10344 ft | 289 kts | 40° |
| 2026-04-25 22:43 | 48.68354 | 1.60636 | 10091 ft | 288 kts | 41° |
| 2026-04-25 22:43 | 48.69813 | 1.62638 | 9827 ft | 286 kts | 41° |
| 2026-04-25 22:43 | 48.71277 | 1.64657 | 9559 ft | 285 kts | 41° |
| 2026-04-25 22:43 | 48.72744 | 1.66678 | 9285 ft | 284 kts | 41° |
| 2026-04-25 22:44 | 48.74206 | 1.68691 | 9024 ft | 283 kts | 41° |
| 2026-04-25 22:44 | 48.75661 | 1.70691 | 8764 ft | 282 kts | 41° |
| 2026-04-25 22:44 | 48.77112 | 1.72684 | 8496 ft | 281 kts | 41° |
| 2026-04-25 22:44 | 48.78337 | 1.74363 | 8281 ft | 280 kts | 41° |
| 2026-04-25 22:45 | 48.79772 | 1.76330 | 8219 ft | 275 kts | 41° |
| 2026-04-25 22:45 | 48.81201 | 1.78290 | 8221 ft | 278 kts | 41° |
| 2026-04-25 22:45 | 48.82636 | 1.80262 | 8224 ft | 278 kts | 43° |
| 2026-04-25 22:45 | 48.83949 | 1.82422 | 8225 ft | 279 kts | 50° |
| 2026-04-25 22:46 | 48.85161 | 1.84711 | 8224 ft | 279 kts | 51° |
| 2026-04-25 22:46 | 48.86364 | 1.87048 | 8224 ft | 279 kts | 51° |
| 2026-04-25 22:46 | 48.87558 | 1.89386 | 8165 ft | 280 kts | 51° |
| 2026-04-25 22:46 | 48.88709 | 1.91725 | 7768 ft | 278 kts | 57° |
| 2026-04-25 22:47 | 48.89684 | 1.94272 | 7375 ft | 277 kts | 60° |
| 2026-04-25 22:47 | 48.90467 | 1.96479 | 7049 ft | 275 kts | 61° |
| 2026-04-25 22:47 | 48.91357 | 1.99029 | 6683 ft | 273 kts | 62° |
| 2026-04-25 22:47 | 48.92218 | 2.01500 | 6639 ft | 250 kts | 62° |
| 2026-04-25 22:48 | 48.92997 | 2.03738 | 6520 ft | 231 kts | 62° |
| 2026-04-25 22:48 | 48.93732 | 2.05847 | 6442 ft | 218 kts | 62° |
| 2026-04-25 22:48 | 48.94440 | 2.07881 | 5998 ft | 218 kts | 62° |
| 2026-04-25 22:48 | 48.95152 | 2.09922 | 5648 ft | 218 kts | 62° |
| 2026-04-25 22:49 | 48.95844 | 2.11910 | 5398 ft | 216 kts | 62° |
| 2026-04-25 22:49 | 48.96498 | 2.13958 | 5215 ft | 208 kts | 66° |
| 2026-04-25 22:49 | 48.97007 | 2.15931 | 5122 ft | 199 kts | 72° |
| 2026-04-25 22:49 | 48.97203 | 2.17978 | 5006 ft | 190 kts | 84° |
| 2026-04-25 22:50 | 48.97330 | 2.19985 | 5007 ft | 191 kts | 84° |
| 2026-04-25 22:50 | 48.97442 | 2.22039 | 4827 ft | 197 kts | 85° |
| 2026-04-25 22:50 | 48.97553 | 2.24103 | 4563 ft | 194 kts | 85° |
| 2026-04-25 22:50 | 48.97663 | 2.26143 | 4299 ft | 192 kts | 85° |
| 2026-04-25 22:51 | 48.97735 | 2.27478 | 4127 ft | 191 kts | 85° |
| 2026-04-25 22:51 | 48.97877 | 2.30127 | 3792 ft | 187 kts | 85° |
| 2026-04-25 22:51 | 48.97982 | 2.32082 | 3547 ft | 185 kts | 86° |
| 2026-04-25 22:51 | 48.98087 | 2.34043 | 3305 ft | 185 kts | 86° |
| 2026-04-25 22:52 | 48.98156 | 2.35330 | 3133 ft | 184 kts | 86° |
| 2026-04-25 22:52 | 48.98258 | 2.37263 | 2894 ft | 182 kts | 85° |
| 2026-04-25 22:52 | 48.98360 | 2.39184 | 2646 ft | 178 kts | 85° |
| 2026-04-25 22:52 | 48.98455 | 2.40970 | 2419 ft | 164 kts | 85° |
| 2026-04-25 22:53 | 48.98541 | 2.42594 | 2216 ft | 161 kts | 85° |
| 2026-04-25 22:53 | 48.98627 | 2.44180 | 2007 ft | 158 kts | 85° |
| 2026-04-25 22:53 | 48.98714 | 2.45842 | 1797 ft | 157 kts | 84° |
| 2026-04-25 22:53 | 48.98801 | 2.47459 | 1584 ft | 149 kts | 84° |
| 2026-04-25 22:54 | 48.98883 | 2.49021 | 1390 ft | 149 kts | 84° |
| 2026-04-25 22:54 | 48.98968 | 2.50595 | 1173 ft | 149 kts | 84° |
| 2026-04-25 22:54 | 48.99051 | 2.52175 | 961 ft | 151 kts | 83° |
| 2026-04-25 22:54 | 48.99138 | 2.53765 | 742 ft | 149 kts | 84° |
| 2026-04-25 22:55 | 48.99224 | 2.55361 | 542 ft | 152 kts | 83° |
| 2026-04-25 22:55 | 48.99311 | 2.56938 | 370 ft | 146 kts | 83° |
| 2026-04-25 22:55 | 48.99394 | 2.58213 | 358 ft | 83 kts | 87° |
| 2026-04-25 22:55 | 48.99411 | 2.58737 | 363 ft | 36 kts | 85° |
| 2026-04-25 22:56 | 48.99421 | 2.58974 | 356 ft | 20 kts | 86° |
| 2026-04-25 22:56 | 48.99446 | 2.59176 | 357 ft | 19 kts | 71° |
| 2026-04-25 22:56 | 48.99493 | 2.59337 | 363 ft | 15 kts | 65° |
| 2026-04-25 22:56 | 48.99535 | 2.59479 | 365 ft | 14 kts | 65° |
| 2026-04-25 22:57 | 48.99546 | 2.59516 | 362 ft | 0 kts | 65° |
| 2026-04-25 22:57 | 48.99547 | 2.59518 | 362 ft | 1 kts | 65° |
| 2026-04-25 22:57 | 48.99554 | 2.59543 | 363 ft | 5 kts | 65° |
| 2026-04-25 22:58 | 48.99573 | 2.59602 | 366 ft | 7 kts | 64° |
| 2026-04-25 22:58 | 48.99614 | 2.59669 | 366 ft | 11 kts | 29° |
| 2026-04-25 22:58 | 48.99702 | 2.59686 | 359 ft | 15 kts | 359° |
| 2026-04-25 22:58 | 48.99826 | 2.59673 | 360 ft | 21 kts | 355° |
| 2026-04-25 22:59 | 48.99937 | 2.59659 | 365 ft | 13 kts | 355° |
| 2026-04-25 22:59 | 49.00028 | 2.59647 | 366 ft | 13 kts | 355° |
| 2026-04-25 22:59 | 49.00120 | 2.59635 | 361 ft | 13 kts | 355° |
| 2026-04-25 22:59 | 49.00188 | 2.59627 | 361 ft | 0 kts | 355° |
| 2026-04-25 23:01 | 49.00218 | 2.59623 | 359 ft | 8 kts | 355° |
| 2026-04-25 23:01 | 49.00274 | 2.59584 | 365 ft | 7 kts | 307° |
| 2026-04-25 23:02 | 49.00284 | 2.59519 | 361 ft | 8 kts | 276° |
| 2026-04-25 23:02 | 49.00285 | 2.59496 | 359 ft | 0 kts | 270° |
| 2026-04-25 23:05 | 49.00285 | 2.59493 | 359 ft | 2 kts | 270° |
| 2026-04-25 23:05 | 49.00285 | 2.59492 | 359 ft | 0 kts | 270° |
| 2026-04-25 23:05 | 49.00285 | 2.59475 | 363 ft | 4 kts | 270° |
| 2026-04-25 23:05 | 49.00289 | 2.59407 | 362 ft | 9 kts | 283° |
| 2026-04-25 23:06 | 49.00305 | 2.59368 | 365 ft | 0 kts | 312° |
| 2026-04-25 23:06 | 49.00310 | 2.59363 | 364 ft | 3 kts | 324° |
| 2026-04-25 23:06 | 49.00332 | 2.59345 | 364 ft | 0 kts | 338° |
| 2026-04-25 23:06 | 49.00338 | 2.59338 | 366 ft | 2 kts | 321° |
| 2026-04-25 23:07 | 49.00346 | 2.59310 | 367 ft | 4 kts | 279° |
| 2026-04-25 23:07 | 49.00347 | 2.59285 | 365 ft | 0 kts | 271° |
| 2026-04-25 23:08 | 49.00347 | 2.59283 | 359 ft | 1 kts | 265° |
| 2026-04-25 23:08 | 49.00344 | 2.59277 | 359 ft | 1 kts | 236° |
| 2026-04-25 23:08 | 49.00337 | 2.59269 | 359 ft | 1 kts | 219° |
| 2026-04-25 23:08 | 49.00325 | 2.59248 | 363 ft | 3 kts | 237° |
| 2026-04-25 23:09 | 49.00318 | 2.59222 | 363 ft | 3 kts | 255° |
| 2026-04-25 23:09 | 49.00316 | 2.59207 | 361 ft | 0 kts | 260° |